Latest Flight | Flight Log | Data Trends | Login | Join FlightData.com!
Date Range From To
Export: Google Earth
Flight Log - N908CB - Click on row to view flight. Click on header to sort.
Date Origin Dest Depart Arrive Hobbs Flight Time Flight Distance Fuel Fuel/hr Fuel/nm Altitude Gnd Speed
Thu, Aug 6, 2020     08:02 08:03 0.01 hrs 0.00 hrs 0.00 nm 0.00 gal 0.00 gal/hr 0.00 gal/nm 0 msl 0 kts
Wed, Aug 5, 2020 KPDK KPDK 17:41 19:20 1.63 hrs 1.13 hrs 140.18 nm 15.51 gal 9.52 gal/hr 0.11 gal/nm 5596 msl 122 kts
Wed, Aug 5, 2020 KPDK KPDK 17:32 17:33 0.02 hrs 0.00 hrs 0.00 nm 1.04 gal 55.06 gal/hr 0.00 gal/nm 0 msl 0 kts
Wed, Aug 5, 2020 KPDK KPDK 12:27 13:24 0.93 hrs 0.66 hrs 78.93 nm 8.95 gal 9.67 gal/hr 0.11 gal/nm 4569 msl 118 kts
Wed, Aug 5, 2020     12:26 12:26 0 hrs 0.00 hrs 0.00 nm 0.01 gal 6.00 gal/hr 0.00 gal/nm 0 msl 0 kts
Wed, Aug 5, 2020     12:19 12:19 0.01 hrs 0.00 hrs 0.00 nm 0.13 gal 10.40 gal/hr 0.00 gal/nm 0 msl 0 kts
Tue, Aug 4, 2020 KRYY KPDK 10:32 11:03 0.5 hrs 0.19 hrs 23.78 nm 3.82 gal 7.65 gal/hr 0.16 gal/nm 3522 msl 121 kts
Tue, Aug 4, 2020     10:21 10:22 0.02 hrs 0.00 hrs 0.00 nm 0.10 gal 5.22 gal/hr 0.00 gal/nm 0 msl 0 kts
Mon, Aug 3, 2020     12:47 12:47 0.01 hrs 0.00 hrs 0.00 nm 0.14 gal 12.00 gal/hr 0.00 gal/nm 0 msl 0 kts
Mon, Aug 3, 2020 KRYY KRYY 12:23 12:45 0.36 hrs 0.00 hrs 0.00 nm 2.40 gal 6.70 gal/hr 0.00 gal/nm 0 msl 0 kts
Mon, Aug 3, 2020 KRYY KRYY 12:08 12:15 0.13 hrs 0.00 hrs 0.00 nm 0.14 gal 1.13 gal/hr 0.00 gal/nm 0 msl 0 kts
Sat, Aug 1, 2020 KRYY KRYY 17:54 18:09 0.24 hrs 0.00 hrs 0.00 nm 0.80 gal 3.30 gal/hr 0.00 gal/nm 0 msl 0 kts
Sat, Aug 1, 2020     11:28 11:28 0 hrs 0.00 hrs 0.00 nm 0.37 gal 222.00 gal/hr 0.00 gal/nm 0 msl 0 kts
Sat, Aug 1, 2020 KRYY KRYY 09:22 11:26 2.04 hrs 1.14 hrs 130.48 nm 16.62 gal 8.14 gal/hr 0.13 gal/nm 4926 msl 112 kts
Sat, Aug 1, 2020 KRYY KRYY 09:10 09:12 0.04 hrs 0.00 hrs 0.00 nm 0.39 gal 10.97 gal/hr 0.00 gal/nm 0 msl 0 kts
Fri, Jul 31, 2020 KRYY KRYY 16:28 17:45 1.27 hrs 0.74 hrs 83.68 nm 10.11 gal 7.99 gal/hr 0.12 gal/nm 5586 msl 112 kts
Fri, Jul 31, 2020 KRYY KRYY 16:04 16:09 0.07 hrs 0.00 hrs 0.00 nm 0.86 gal 11.91 gal/hr 0.00 gal/nm 0 msl 0 kts
Fri, Jul 31, 2020 KRYY KRYY 09:12 10:52 1.64 hrs 1.00 hrs 106.74 nm 13.72 gal 8.39 gal/hr 0.13 gal/nm 2595 msl 105 kts
Fri, Jul 31, 2020 KPDK KRYY 08:40 09:05 0.41 hrs 0.20 hrs 20.81 nm 3.47 gal 8.55 gal/hr 0.17 gal/nm 3116 msl 104 kts
Thu, Jul 30, 2020 KRYY KPDK 16:28 16:53 0.42 hrs 0.18 hrs 22.91 nm 3.18 gal 7.64 gal/hr 0.14 gal/nm 3225 msl 123 kts
Thu, Jul 30, 2020     16:23 16:24 0.02 hrs 0.00 hrs 0.00 nm 0.59 gal 38.62 gal/hr 0.00 gal/nm 0 msl 0 kts
Thu, Jul 30, 2020 KRYY KRYY 12:16 12:19 0.05 hrs 0.00 hrs 0.03 nm 0.21 gal 4.18 gal/hr 7.16 gal/nm 981 msl 44 kts
Thu, Jul 30, 2020 KRYY KRYY 07:11 07:18 0.12 hrs 0.00 hrs 0.00 nm 0.69 gal 5.66 gal/hr 0.00 gal/nm 0 msl 0 kts
Wed, Jul 29, 2020     17:38 17:38 0 hrs 0.00 hrs 0.00 nm 0.00 gal 0.00 gal/hr 0.00 gal/nm 0 msl 0 kts
Wed, Jul 29, 2020 KPDK KRYY 17:15 17:36 0.35 hrs 0.16 hrs 18.68 nm 2.55 gal 7.40 gal/hr 0.14 gal/nm 2688 msl 116 kts
Wed, Jul 29, 2020 KPDK KPDK 12:19 14:07 1.78 hrs 1.34 hrs 172.77 nm 19.34 gal 10.90 gal/hr 0.11 gal/nm 5135 msl 127 kts
Tue, Jul 28, 2020 KPDK KPDK 15:13 17:06 1.84 hrs 1.51 hrs 185.70 nm 18.80 gal 10.21 gal/hr 0.10 gal/nm 3676 msl 121 kts
Tue, Jul 28, 2020     15:03 15:04 0.02 hrs 0.00 hrs 0.00 nm 0.27 gal 12.30 gal/hr 0.00 gal/nm 0 msl 0 kts
Tue, Jul 28, 2020     12:07 12:07 0 hrs 0.00 hrs 0.00 nm 0.04 gal 8.47 gal/hr 0.00 gal/nm 0 msl 0 kts
Tue, Jul 28, 2020 KPDK KPDK 11:10 11:57 0.78 hrs 0.45 hrs 50.49 nm 6.37 gal 8.16 gal/hr 0.13 gal/nm 3219 msl 111 kts
Tue, Jul 28, 2020 KPDK KPDK 10:48 10:50 0.03 hrs 0.00 hrs 0.00 nm 0.00 gal 0.04 gal/hr 0.00 gal/nm 0 msl 0 kts
Tue, Jul 28, 2020 KPDK KPDK 10:19 10:20 0.01 hrs 0.00 hrs 0.00 nm 0.02 gal 1.64 gal/hr 0.00 gal/nm 0 msl 0 kts
Tue, Jul 28, 2020 KPDK KPDK 08:52 10:19 1.42 hrs 0.87 hrs 103.29 nm 12.11 gal 8.52 gal/hr 0.12 gal/nm 4855 msl 117 kts
Tue, Jul 28, 2020     08:43 08:43 0.01 hrs 0.00 hrs 0.00 nm 1.55 gal 253.64 gal/hr 0.00 gal/nm 0 msl 0 kts
Mon, Jul 27, 2020 KPDK KPDK 16:54 18:39 1.72 hrs 1.11 hrs 122.59 nm 14.69 gal 8.53 gal/hr 0.12 gal/nm 3756 msl 109 kts
Mon, Jul 27, 2020 KPDK KPDK 16:43 16:44 0.02 hrs 0.00 hrs 0.00 nm 23.07 gal 1038.15 gal/hr 0.00 gal/nm 0 msl 0 kts
Mon, Jul 27, 2020 KPDK KPDK 13:08 14:32 1.37 hrs 1.01 hrs 108.60 nm 13.10 gal 9.56 gal/hr 0.12 gal/nm 4763 msl 106 kts
Mon, Jul 27, 2020 KPDK KPDK 12:49 13:03 0.23 hrs 0.00 hrs 0.00 nm 0.62 gal 2.68 gal/hr 0.00 gal/nm 0 msl 0 kts
Mon, Jul 27, 2020 KPDK KPDK 12:33 12:37 0.07 hrs 0.00 hrs 0.00 nm 0.62 gal 8.55 gal/hr 0.00 gal/nm 0 msl 0 kts
Mon, Jul 27, 2020 KPDK KPDK 09:47 11:38 1.81 hrs 1.19 hrs 127.30 nm 13.73 gal 7.57 gal/hr 0.11 gal/nm 4892 msl 105 kts
Mon, Jul 27, 2020 KPDK KPDK 09:27 09:33 0.11 hrs 0.00 hrs 0.00 nm 0.25 gal 2.36 gal/hr 0.00 gal/nm 0 msl 0 kts
Mon, Jul 27, 2020     07:04 07:04 0 hrs 0.00 hrs 0.00 nm 0.00 gal 0.00 gal/hr 0.00 gal/nm 0 msl 0 kts
Sun, Jul 26, 2020     15:14 15:14 0 hrs 0.00 hrs 0.00 nm 0.02 gal 14.40 gal/hr 0.00 gal/nm 0 msl 0 kts
Sun, Jul 26, 2020 KPDK KPDK 15:10 15:10 0.01 hrs 0.00 hrs 0.00 nm 0.10 gal 10.91 gal/hr 0.00 gal/nm 0 msl 0 kts
Sun, Jul 26, 2020 KAHN KPDK 14:23 15:09 0.76 hrs 0.46 hrs 55.74 nm 7.09 gal 9.40 gal/hr 0.13 gal/nm 3352 msl 121 kts
Sun, Jul 26, 2020 KPDK KAHN 10:52 12:45 1.84 hrs 1.53 hrs 188.76 nm 19.33 gal 10.50 gal/hr 0.10 gal/nm 7516 msl 121 kts
Sun, Jul 26, 2020 KPDK KPDK 10:28 10:30 0.03 hrs 0.00 hrs 0.00 nm 0.06 gal 1.73 gal/hr 0.00 gal/nm 0 msl 0 kts
Sun, Jul 26, 2020 KPDK KPDK 10:05 10:08 0.04 hrs 0.00 hrs 0.00 nm 0.39 gal 9.24 gal/hr 0.00 gal/nm 0 msl 0 kts
Fri, Jul 24, 2020 KCHA KPDK 14:42 15:47 1.07 hrs 0.74 hrs 99.91 nm 10.74 gal 10.08 gal/hr 0.11 gal/nm 7017 msl 133 kts
Fri, Jul 24, 2020 KPDK KCHA 13:26 14:31 1.08 hrs 0.67 hrs 90.85 nm 9.99 gal 9.27 gal/hr 0.11 gal/nm 6641 msl 133 kts
Fri, Jul 24, 2020     13:20 13:21 0 hrs 0.00 hrs 0.00 nm 0.20 gal 42.35 gal/hr 0.00 gal/nm 0 msl 0 kts
Fri, Jul 24, 2020 KPDK KPDK 10:01 12:06 2.05 hrs 1.43 hrs 173.87 nm 20.02 gal 9.75 gal/hr 0.12 gal/nm 5512 msl 120 kts
Fri, Jul 24, 2020 KPDK KPDK 09:47 09:48 0.02 hrs 0.00 hrs 0.00 nm 0.13 gal 8.36 gal/hr 0.00 gal/nm 0 msl 0 kts
Thu, Jul 23, 2020     19:08 19:08 0 hrs 0.00 hrs 0.00 nm 0.15 gal 31.76 gal/hr 0.00 gal/nm 0 msl 0 kts
Thu, Jul 23, 2020 KSSI KPDK 16:53 19:03 2.13 hrs 1.94 hrs 287.90 nm 24.65 gal 11.60 gal/hr 0.09 gal/nm 10077 msl 146 kts
Thu, Jul 23, 2020 KPDK KSSI 12:54 15:08 2.2 hrs 1.89 hrs 248.32 nm 24.34 gal 11.07 gal/hr 0.10 gal/nm 9045 msl 130 kts
Thu, Jul 23, 2020     12:44 12:45 0.01 hrs 0.00 hrs 0.00 nm 0.02 gal 3.79 gal/hr 0.00 gal/nm 0 msl 0 kts
Wed, Jul 22, 2020 KJQF KPDK 16:53 18:51 1.93 hrs 1.60 hrs 226.00 nm 21.68 gal 11.26 gal/hr 0.10 gal/nm 8016 msl 139 kts
Wed, Jul 22, 2020 KPDK KJQF 14:30 16:23 1.85 hrs 1.40 hrs 212.29 nm 17.81 gal 9.62 gal/hr 0.08 gal/nm 7030 msl 150 kts
Wed, Jul 22, 2020     14:27 14:27 0 hrs 0.00 hrs 0.00 nm 0.05 gal 36.00 gal/hr 0.00 gal/nm 0 msl 0 kts
Wed, Jul 22, 2020     14:24 14:24 0.01 hrs 0.00 hrs 0.00 nm 0.06 gal 6.35 gal/hr 0.00 gal/nm 0 msl 0 kts
Wed, Jul 22, 2020 KPDK KPDK 09:55 11:56 1.98 hrs 1.08 hrs 139.45 nm 15.77 gal 7.96 gal/hr 0.11 gal/nm 5511 msl 127 kts
Wed, Jul 22, 2020 KPDK KPDK 09:40 09:42 0.03 hrs 0.00 hrs 0.00 nm 20.90 gal 648.62 gal/hr 0.00 gal/nm 0 msl 0 kts
Tue, Jul 21, 2020 KPDK KPDK 09:37 12:00 2.34 hrs 1.31 hrs 140.50 nm 19.59 gal 8.36 gal/hr 0.14 gal/nm 3575 msl 106 kts
Mon, Jul 20, 2020 KPDK KPDK 23:43 23:46 0.05 hrs 0.00 hrs 0.00 nm 0.10 gal 2.07 gal/hr 0.00 gal/nm 0 msl 0 kts
Mon, Jul 20, 2020 KAHN KPDK 22:35 23:38 1.04 hrs 0.66 hrs 76.65 nm 10.21 gal 9.86 gal/hr 0.13 gal/nm 3814 msl 114 kts
Mon, Jul 20, 2020     22:23 22:24 0.01 hrs 0.00 hrs 0.00 nm 0.27 gal 32.40 gal/hr 0.00 gal/nm 0 msl 0 kts
Mon, Jul 20, 2020 KPDK KAHN 17:24 20:14 2.79 hrs 2.18 hrs 261.36 nm 29.39 gal 10.55 gal/hr 0.11 gal/nm 5008 msl 118 kts
Mon, Jul 20, 2020     17:10 17:11 0.01 hrs 0.00 hrs 0.00 nm 0.06 gal 4.91 gal/hr 0.00 gal/nm 0 msl 0 kts
Mon, Jul 20, 2020     16:43 16:43 0 hrs 0.00 hrs 0.00 nm 0.15 gal 90.00 gal/hr 0.00 gal/nm 0 msl 0 kts
Mon, Jul 20, 2020 KPDK KPDK 14:52 16:42 1.82 hrs 1.43 hrs 175.42 nm 17.84 gal 9.83 gal/hr 0.10 gal/nm 4253 msl 121 kts
Mon, Jul 20, 2020     14:31 14:32 0.02 hrs 0.00 hrs 0.00 nm 2.89 gal 179.38 gal/hr 0.00 gal/nm 0 msl 0 kts
Mon, Jul 20, 2020 KPDK KPDK 10:39 10:42 0.05 hrs 0.00 hrs 0.00 nm 0.43 gal 8.90 gal/hr 0.00 gal/nm 0 msl 0 kts
Mon, Jul 20, 2020 KPDK KPDK 08:29 10:36 2.09 hrs 1.64 hrs 207.21 nm 21.80 gal 10.45 gal/hr 0.11 gal/nm 5517 msl 124 kts
Sat, Jul 18, 2020 KPDK KPDK 09:32 13:14 3.63 hrs 2.78 hrs 327.24 nm 39.12 gal 10.78 gal/hr 0.12 gal/nm 4531 msl 116 kts
Sat, Jul 18, 2020 KPDK KPDK 09:07 09:09 0.04 hrs 0.00 hrs 0.00 nm 0.20 gal 5.62 gal/hr 0.00 gal/nm 0 msl 0 kts
Fri, Jul 17, 2020 KPDK KPDK 11:21 15:46 4.33 hrs 3.55 hrs 501.31 nm 47.53 gal 10.97 gal/hr 0.09 gal/nm 9082 msl 139 kts
Fri, Jul 17, 2020     11:19 11:21 0.02 hrs 0.00 hrs 0.00 nm 0.00 gal 0.00 gal/hr 0.00 gal/nm 0 msl 0 kts
Fri, Jul 17, 2020 KPDK KPDK 11:11 11:13 0.05 hrs 0.00 hrs 0.00 nm 0.00 gal 0.00 gal/hr 0.00 gal/nm 0 msl 0 kts
Fri, Jul 17, 2020 KPDK KPDK 09:33 10:18 0.74 hrs 0.00 hrs 0.00 nm 0.00 gal 0.00 gal/hr 0.00 gal/nm 0 msl 0 kts
Fri, Jul 17, 2020 KPDK KPDK 09:08 09:13 0.08 hrs 0.00 hrs 0.00 nm 0.19 gal 2.31 gal/hr 0.00 gal/nm 0 msl 0 kts
Thu, Jul 16, 2020     21:57 21:57 0 hrs 0.00 hrs 0.00 nm 0.02 gal 4.24 gal/hr 0.00 gal/nm 0 msl 0 kts
Thu, Jul 16, 2020 KCRG KPDK 19:42 21:50 2.11 hrs 1.82 hrs 277.83 nm 23.29 gal 11.04 gal/hr 0.08 gal/nm 8548 msl 150 kts
Thu, Jul 16, 2020     19:33 19:34 0.01 hrs 0.00 hrs 0.00 nm 0.00 gal 0.00 gal/hr 0.00 gal/nm 0 msl 0 kts
Thu, Jul 16, 2020 KPDK KCRG 06:32 08:41 2.13 hrs 1.86 hrs 267.98 nm 22.96 gal 10.78 gal/hr 0.09 gal/nm 9521 msl 141 kts
Thu, Jul 16, 2020     06:18 06:18 0.01 hrs 0.00 hrs 0.00 nm 0.02 gal 1.64 gal/hr 0.00 gal/nm 0 msl 0 kts
Wed, Jul 15, 2020 KPDK KPDK 15:02 15:17 0.25 hrs 0.00 hrs 0.00 nm 0.56 gal 2.26 gal/hr 0.00 gal/nm 0 msl 0 kts
Wed, Jul 15, 2020 KPDK KPDK 11:02 12:32 1.47 hrs 1.09 hrs 142.65 nm 14.04 gal 9.56 gal/hr 0.10 gal/nm 5028 msl 129 kts
Wed, Jul 15, 2020 KPDK KPDK 10:53 10:54 0.03 hrs 0.00 hrs 0.00 nm 0.24 gal 8.31 gal/hr 0.00 gal/nm 0 msl 0 kts
Tue, Jul 14, 2020 KPDK KPDK 18:53 20:01 1.11 hrs 0.38 hrs 37.48 nm 6.25 gal 5.64 gal/hr 0.17 gal/nm 2060 msl 98 kts
Tue, Jul 14, 2020 KPDK KPDK 18:15 18:18 0.04 hrs 0.00 hrs 0.00 nm 1.07 gal 25.34 gal/hr 0.00 gal/nm 0 msl 0 kts
Tue, Jul 14, 2020     11:29 11:29 0 hrs 0.00 hrs 0.00 nm 0.16 gal 96.00 gal/hr 0.00 gal/nm 0 msl 0 kts
Tue, Jul 14, 2020 KPDK KPDK 09:29 11:28 1.96 hrs 1.53 hrs 165.01 nm 19.24 gal 9.82 gal/hr 0.12 gal/nm 3731 msl 106 kts
Tue, Jul 14, 2020     08:38 08:38 0.01 hrs 0.00 hrs 0.00 nm 0.00 gal 0.00 gal/hr 0.00 gal/nm 0 msl 0 kts
Tue, Jul 14, 2020     07:42 07:42 0 hrs 0.00 hrs 0.00 nm 0.00 gal 0.00 gal/hr 0.00 gal/nm 0 msl 0 kts
Mon, Jul 13, 2020     18:29 18:29 0 hrs 0.00 hrs 0.00 nm 0.11 gal 66.00 gal/hr 0.00 gal/nm 0 msl 0 kts
Mon, Jul 13, 2020 KPDK KPDK 17:26 18:23 0.94 hrs 0.67 hrs 86.28 nm 9.50 gal 10.16 gal/hr 0.11 gal/nm 5242 msl 127 kts
Mon, Jul 13, 2020 KPDK KPDK 17:10 17:11 0.03 hrs 0.00 hrs 0.00 nm 17.12 gal 586.97 gal/hr 0.00 gal/nm 0 msl 0 kts
Mon, Jul 13, 2020     16:14 16:14 0.01 hrs 0.00 hrs 0.00 nm 1.74 gal 202.06 gal/hr 0.00 gal/nm 0 msl 0 kts
Mon, Jul 13, 2020 KDBN KPDK 12:25 13:25 0.97 hrs 0.82 hrs 105.46 nm 10.41 gal 10.71 gal/hr 0.10 gal/nm 4514 msl 127 kts
Mon, Jul 13, 2020 KDBN KDBN 10:45 12:09 1.38 hrs 1.10 hrs 135.23 nm 14.13 gal 10.22 gal/hr 0.10 gal/nm 2514 msl 121 kts
Mon, Jul 13, 2020     10:39 10:39 0.01 hrs 0.00 hrs 0.00 nm 0.24 gal 19.20 gal/hr 0.00 gal/nm 0 msl 0 kts
Mon, Jul 13, 2020 KPDK KDBN 05:47 06:49 1.02 hrs 0.74 hrs 108.49 nm 10.02 gal 9.86 gal/hr 0.09 gal/nm 3538 msl 145 kts
Mon, Jul 13, 2020     05:41 05:42 0.01 hrs 0.00 hrs 0.00 nm 17.51 gal 1432.64 gal/hr 0.00 gal/nm 0 msl 0 kts
Sun, Jul 12, 2020 KPDK KPDK 14:46 15:40 0.9 hrs 0.52 hrs 69.35 nm 9.87 gal 11.01 gal/hr 0.14 gal/nm 3136 msl 132 kts
Sat, Jul 11, 2020 KPDK KPDK 18:45 20:43 1.94 hrs 0.98 hrs 110.33 nm 13.60 gal 7.00 gal/hr 0.12 gal/nm 4211 msl 111 kts
Sat, Jul 11, 2020 KPDK KPDK 18:31 18:32 0.02 hrs 0.00 hrs 0.00 nm 0.00 gal 0.00 gal/hr 0.00 gal/nm 0 msl 0 kts
Sat, Jul 11, 2020 KPDK KPDK 13:24 14:55 1.48 hrs 1.03 hrs 127.95 nm 12.38 gal 8.36 gal/hr 0.10 gal/nm 5702 msl 122 kts
Sat, Jul 11, 2020     13:17 13:18 0.01 hrs 0.00 hrs 0.00 nm 2.57 gal 289.12 gal/hr 0.00 gal/nm 0 msl 0 kts
Sat, Jul 11, 2020 KPDK KPDK 09:47 09:51 0.06 hrs 0.00 hrs 0.00 nm 0.36 gal 5.56 gal/hr 0.00 gal/nm 0 msl 0 kts
Fri, Jul 10, 2020 KRYY KPDK 13:28 14:05 0.6 hrs 0.24 hrs 28.51 nm 4.05 gal 6.76 gal/hr 0.14 gal/nm 3520 msl 118 kts
Fri, Jul 10, 2020 KPDK KRYY 10:09 11:40 1.48 hrs 1.04 hrs 124.21 nm 13.26 gal 8.96 gal/hr 0.11 gal/nm 4688 msl 118 kts
Fri, Jul 10, 2020     09:56 09:57 0.02 hrs 0.00 hrs 0.00 nm 0.73 gal 32.85 gal/hr 0.00 gal/nm 0 msl 0 kts
Thu, Jul 9, 2020     16:22 16:22 0 hrs 0.00 hrs 0.00 nm 0.13 gal 27.53 gal/hr 0.00 gal/nm 0 msl 0 kts
Thu, Jul 9, 2020 KRYY KPDK 15:50 16:17 0.44 hrs 0.20 hrs 23.74 nm 3.44 gal 7.84 gal/hr 0.14 gal/nm 3929 msl 118 kts
Thu, Jul 9, 2020     15:41 15:42 0.02 hrs 0.00 hrs 0.00 nm 0.12 gal 6.45 gal/hr 0.00 gal/nm 0 msl 0 kts
Thu, Jul 9, 2020 KRYY KRYY 13:30 13:43 0.22 hrs 0.00 hrs 0.00 nm 0.89 gal 4.08 gal/hr 0.00 gal/nm 0 msl 0 kts
Thu, Jul 9, 2020 KRYY KRYY 12:35 12:52 0.29 hrs 0.00 hrs 0.00 nm 0.61 gal 2.15 gal/hr 0.00 gal/nm 0 msl 0 kts
Mon, Jul 6, 2020     10:18 10:18 0 hrs 0.00 hrs 0.00 nm 0.04 gal 28.80 gal/hr 0.00 gal/nm 0 msl 0 kts
Wed, Jul 1, 2020     15:25 15:26 0.02 hrs 0.00 hrs 0.00 nm 0.15 gal 8.31 gal/hr 0.00 gal/nm 0 msl 0 kts
Wed, Jul 1, 2020     14:29 14:39 0.16 hrs 0.00 hrs 0.00 nm 0.84 gal 5.10 gal/hr 0.00 gal/nm 0 msl 0 kts
Wed, Jul 1, 2020 KRYY KRYY 13:15 13:38 0.38 hrs 0.00 hrs 0.00 nm 0.99 gal 2.65 gal/hr 0.00 gal/nm 0 msl 0 kts
Wed, Jul 1, 2020     13:13 13:14 0.01 hrs 0.00 hrs 0.00 nm 0.03 gal 2.08 gal/hr 0.00 gal/nm 0 msl 0 kts
Wed, Jul 1, 2020     13:12 13:13 0.01 hrs 0.00 hrs 0.00 nm 0.08 gal 5.43 gal/hr 0.00 gal/nm 0 msl 0 kts
Tue, Jun 30, 2020     19:29 19:29 0 hrs 0.00 hrs 0.00 nm 0.02 gal 10.29 gal/hr 0.00 gal/nm 0 msl 0 kts
Tue, Jun 30, 2020 KPDK KPDK 18:09 19:24 1.23 hrs 0.69 hrs 69.54 nm 8.73 gal 7.13 gal/hr 0.13 gal/nm 2401 msl 99 kts
Tue, Jun 30, 2020     17:56 17:56 0.01 hrs 0.00 hrs 0.00 nm 7.69 gal 1384.20 gal/hr 0.00 gal/nm 0 msl 0 kts
Tue, Jun 30, 2020     17:55 17:56 0.01 hrs 0.00 hrs 0.00 nm 0.03 gal 5.40 gal/hr 0.00 gal/nm 0 msl 0 kts
Tue, Jun 30, 2020 KRYY KPDK 14:18 14:44 0.44 hrs 0.21 hrs 25.13 nm 3.17 gal 7.22 gal/hr 0.13 gal/nm 4020 msl 117 kts
Tue, Jun 30, 2020     14:14 14:15 0.02 hrs 0.00 hrs 0.00 nm 1.50 gal 94.74 gal/hr 0.00 gal/nm 0 msl 0 kts
Tue, Jun 30, 2020 KRYY KRYY 11:52 13:40 1.77 hrs 1.32 hrs 149.63 nm 16.92 gal 9.55 gal/hr 0.11 gal/nm 4139 msl 112 kts
Tue, Jun 30, 2020     11:05 11:06 0.02 hrs 0.00 hrs 0.00 nm 0.75 gal 49.09 gal/hr 0.00 gal/nm 0 msl 0 kts
Tue, Jun 30, 2020 KPDK KRYY 10:28 10:55 0.46 hrs 0.20 hrs 21.77 nm 2.95 gal 6.48 gal/hr 0.14 gal/nm 3043 msl 108 kts
Tue, Jun 30, 2020 KPDK KPDK 10:10 10:13 0.05 hrs 0.00 hrs 0.00 nm 0.00 gal 0.10 gal/hr 0.00 gal/nm 0 msl 0 kts
Tue, Jun 30, 2020 KPDK KPDK 08:31 09:58 1.42 hrs 0.98 hrs 129.62 nm 14.42 gal 10.19 gal/hr 0.11 gal/nm 4015 msl 130 kts
Tue, Jun 30, 2020     08:18 08:18 0.01 hrs 0.00 hrs 0.00 nm 0.04 gal 8.00 gal/hr 0.00 gal/nm 0 msl 0 kts
Mon, Jun 29, 2020 KPDK KPDK 16:16 17:18 1.01 hrs 0.58 hrs 74.50 nm 8.09 gal 8.03 gal/hr 0.11 gal/nm 4107 msl 126 kts
Mon, Jun 29, 2020 KPDK KPDK 15:56 15:58 0.05 hrs 0.00 hrs 0.00 nm 0.01 gal 0.19 gal/hr 0.00 gal/nm 0 msl 0 kts
Mon, Jun 29, 2020     15:34 15:34 0 hrs 0.00 hrs 0.00 nm 0.04 gal 24.00 gal/hr 0.00 gal/nm 0 msl 0 kts
Mon, Jun 29, 2020 KTCL KPDK 13:53 15:30 1.59 hrs 1.30 hrs 193.46 nm 18.59 gal 11.68 gal/hr 0.10 gal/nm 7060 msl 146 kts
Mon, Jun 29, 2020 KPDK KTCL 07:55 09:55 1.96 hrs 1.32 hrs 175.99 nm 18.77 gal 9.58 gal/hr 0.11 gal/nm 8008 msl 132 kts
Mon, Jun 29, 2020 KPDK KPDK 07:36 07:37 0.02 hrs 0.00 hrs 0.00 nm 14.69 gal 661.05 gal/hr 0.00 gal/nm 0 msl 0 kts
Sat, Jun 27, 2020     14:03 14:04 0.01 hrs 0.00 hrs 0.00 nm 0.04 gal 4.97 gal/hr 0.00 gal/nm 0 msl 0 kts
Sat, Jun 27, 2020 KRYY KRYY 13:59 14:01 0.03 hrs 0.00 hrs 0.00 nm 0.22 gal 6.34 gal/hr 0.00 gal/nm 0 msl 0 kts
Sat, Jun 27, 2020 KPDK KPDK 08:58 10:52 1.87 hrs 1.17 hrs 117.54 nm 14.17 gal 7.60 gal/hr 0.12 gal/nm 3111 msl 99 kts
Sat, Jun 27, 2020 KPDK KPDK 08:34 08:36 0.03 hrs 0.00 hrs 0.00 nm 0.51 gal 19.96 gal/hr 0.00 gal/nm 0 msl 0 kts
Fri, Jun 26, 2020     14:43 14:43 0 hrs 0.00 hrs 0.00 nm 0.02 gal 14.40 gal/hr 0.00 gal/nm 0 msl 0 kts
Fri, Jun 26, 2020     14:42 14:42 0 hrs 0.00 hrs 0.00 nm 0.04 gal 28.80 gal/hr 0.00 gal/nm 0 msl 0 kts
Fri, Jun 26, 2020 KPDK KRYY 14:15 14:40 0.42 hrs 0.21 hrs 22.50 nm 3.18 gal 7.60 gal/hr 0.14 gal/nm 3131 msl 106 kts
Fri, Jun 26, 2020 KPDK KPDK 13:46 14:41 0.9 hrs 0.42 hrs 53.64 nm 6.62 gal 7.33 gal/hr 0.12 gal/nm 3164 msl 126 kts
Fri, Jun 26, 2020 KPDK KPDK 13:34 13:35 0.03 hrs 0.00 hrs 0.00 nm 1.19 gal 46.06 gal/hr 0.00 gal/nm 0 msl 0 kts
Fri, Jun 26, 2020 KPDK KPDK 10:48 13:16 2.44 hrs 1.94 hrs 237.32 nm 24.94 gal 10.21 gal/hr 0.11 gal/nm 5597 msl 121 kts
Fri, Jun 26, 2020     10:30 10:31 0.02 hrs 0.00 hrs 0.00 nm 0.22 gal 9.90 gal/hr 0.00 gal/nm 0 msl 0 kts
Fri, Jun 26, 2020 KPDK KPDK 08:08 09:37 1.45 hrs 1.07 hrs 122.41 nm 14.51 gal 10.00 gal/hr 0.12 gal/nm 4720 msl 112 kts
Fri, Jun 26, 2020     08:00 08:01 0.02 hrs 0.00 hrs 0.00 nm 0.62 gal 32.82 gal/hr 0.00 gal/nm 0 msl 0 kts
Thu, Jun 25, 2020 KPDK KPDK 16:10 17:49 1.62 hrs 1.03 hrs 121.34 nm 14.11 gal 8.72 gal/hr 0.12 gal/nm 3318 msl 116 kts
Thu, Jun 25, 2020 KPDK KPDK 15:58 16:00 0.03 hrs 0.00 hrs 0.00 nm 1.14 gal 45.60 gal/hr 0.00 gal/nm 0 msl 0 kts
Thu, Jun 25, 2020 KMNV KPDK 14:33 15:45 1.18 hrs 0.90 hrs 119.37 nm 12.59 gal 10.71 gal/hr 0.11 gal/nm 4525 msl 131 kts
Thu, Jun 25, 2020 KPDK KPDK 13:16 15:06 1.81 hrs 1.48 hrs 186.30 nm 18.22 gal 10.09 gal/hr 0.10 gal/nm 3161 msl 124 kts
Thu, Jun 25, 2020     13:09 13:10 0.01 hrs 0.00 hrs 0.00 nm 0.19 gal 22.06 gal/hr 0.00 gal/nm 0 msl 0 kts
Thu, Jun 25, 2020 KPDK KMNV 10:41 14:01 3.28 hrs 2.79 hrs 374.10 nm 37.57 gal 11.45 gal/hr 0.10 gal/nm 6059 msl 132 kts
Thu, Jun 25, 2020 KPDK KPDK 10:29 10:31 0.03 hrs 0.00 hrs 0.00 nm 0.01 gal 0.39 gal/hr 0.00 gal/nm 0 msl 0 kts
Wed, Jun 24, 2020 KPDK KPDK 16:48 17:08 0.33 hrs 0.00 hrs 0.00 nm 0.75 gal 2.29 gal/hr 0.00 gal/nm 0 msl 0 kts
Wed, Jun 24, 2020 KPDK KPDK 16:34 16:35 0.02 hrs 0.00 hrs 0.00 nm 0.00 gal 0.00 gal/hr 0.00 gal/nm 0 msl 0 kts
Wed, Jun 24, 2020 KPXE KPDK 13:00 14:37 1.59 hrs 1.27 hrs 173.10 nm 17.04 gal 10.73 gal/hr 0.10 gal/nm 5020 msl 135 kts
Wed, Jun 24, 2020 KPDK KPDK 11:15 11:18 0.04 hrs 0.00 hrs 0.00 nm 0.00 gal 0.01 gal/hr 0.00 gal/nm 0 msl 0 kts
Wed, Jun 24, 2020 KPDK GMMJ 10:46 12:22 1.58 hrs 1.04 hrs 141.16 nm 14.73 gal 9.31 gal/hr 0.10 gal/nm 5139 msl 133 kts
Wed, Jun 24, 2020 KPDK KPDK 10:33 10:34 0.02 hrs 0.00 hrs 0.00 nm 0.00 gal 0.00 gal/hr 0.00 gal/nm 0 msl 0 kts
Wed, Jun 24, 2020 KPDK KPDK 08:45 11:09 2.37 hrs 2.02 hrs 268.55 nm 28.03 gal 11.85 gal/hr 0.10 gal/nm 6012 msl 131 kts
Tue, Jun 23, 2020 KPDK KPDK 19:44 19:44 0 hrs 0.00 hrs 0.00 nm 0.15 gal 67.50 gal/hr 0.00 gal/nm 0 msl 0 kts
Tue, Jun 23, 2020 KPDK KPDK 18:18 19:44 1.4 hrs 0.61 hrs 63.45 nm 8.33 gal 5.96 gal/hr 0.13 gal/nm 3067 msl 103 kts
Tue, Jun 23, 2020 KPDK KPDK 18:01 18:02 0.02 hrs 0.00 hrs 0.00 nm 0.00 gal 0.03 gal/hr 0.00 gal/nm 0 msl 0 kts
Tue, Jun 23, 2020     17:18 17:18 0 hrs 0.00 hrs 0.00 nm 0.01 gal 6.00 gal/hr 0.00 gal/nm 0 msl 0 kts
Tue, Jun 23, 2020 KPDK KPDK 17:01 18:43 1.67 hrs 1.17 hrs 135.13 nm 15.54 gal 9.33 gal/hr 0.11 gal/nm 4011 msl 114 kts
Tue, Jun 23, 2020 KPDK KPDK 16:51 16:52 0.03 hrs 0.00 hrs 0.00 nm 0.00 gal 0.00 gal/hr 0.00 gal/nm 0 msl 0 kts
Tue, Jun 23, 2020 KPDK KPDK 16:08 17:17 1.12 hrs 0.73 hrs 93.87 nm 10.61 gal 9.46 gal/hr 0.11 gal/nm 3824 msl 126 kts
Tue, Jun 23, 2020 KPDK KPDK 15:54 15:56 0.04 hrs 0.00 hrs 0.00 nm 0.00 gal 0.00 gal/hr 0.00 gal/nm 0 msl 0 kts
Tue, Jun 23, 2020 KPDK KPDK 09:38 13:42 3.99 hrs 3.06 hrs 386.72 nm 41.11 gal 10.30 gal/hr 0.11 gal/nm 7056 msl 125 kts
Tue, Jun 23, 2020 KPDK KPDK 09:12 09:31 0.31 hrs 0.00 hrs 0.00 nm 0.00 gal 0.00 gal/hr 0.00 gal/nm 0 msl 0 kts
Tue, Jun 23, 2020     09:09 09:09 0.01 hrs 0.00 hrs 0.00 nm 0.06 gal 4.60 gal/hr 0.00 gal/nm 0 msl 0 kts
Tue, Jun 23, 2020     07:50 07:51 0.01 hrs 0.00 hrs 0.00 nm 0.00 gal 0.00 gal/hr 0.00 gal/nm 0 msl 0 kts
Mon, Jun 22, 2020 9A1 KPDK 14:40 15:03 0.38 hrs 0.23 hrs 30.17 nm 4.26 gal 11.37 gal/hr 0.14 gal/nm 3022 msl 132 kts
Mon, Jun 22, 2020 KTLH 9A1 12:32 14:28 1.9 hrs 1.39 hrs 215.78 nm 26.42 gal 13.91 gal/hr 0.12 gal/nm 4247 msl 153 kts
Mon, Jun 22, 2020 KPDK KTLH 09:05 10:54 1.8 hrs 1.55 hrs 228.65 nm 28.14 gal 15.61 gal/hr 0.12 gal/nm 6521 msl 145 kts
Mon, Jun 22, 2020     05:31 05:32 0 hrs 0.00 hrs 0.00 nm 0.05 gal 11.25 gal/hr 0.00 gal/nm 0 msl 0 kts
Sun, Jun 21, 2020 KSAV KPDK 15:21 17:24 2.02 hrs 1.62 hrs 231.17 nm 28.40 gal 14.06 gal/hr 0.12 gal/nm 4888 msl 140 kts
Sun, Jun 21, 2020 KPDK KSAV 13:04 15:05 1.99 hrs 1.62 hrs 227.60 nm 22.67 gal 11.40 gal/hr 0.10 gal/nm 5516 msl 138 kts
Sat, Jun 20, 2020     14:28 14:28 0 hrs 0.00 hrs 0.00 nm 0.07 gal 42.00 gal/hr 0.00 gal/nm 0 msl 0 kts
Sat, Jun 20, 2020 KPDK KPDK 14:17 16:58 2.64 hrs 1.65 hrs 191.64 nm 20.63 gal 7.83 gal/hr 0.11 gal/nm 5255 msl 114 kts
Sat, Jun 20, 2020 KPDK KPDK 13:02 13:04 0.03 hrs 0.00 hrs 0.00 nm 0.00 gal 0.02 gal/hr 0.00 gal/nm 0 msl 0 kts
Sat, Jun 20, 2020 KPDK KPDK 11:43 13:38 1.89 hrs 1.22 hrs 139.45 nm 15.47 gal 8.19 gal/hr 0.11 gal/nm 5715 msl 113 kts
Sat, Jun 20, 2020 KPDK KPDK 11:32 11:34 0.03 hrs 0.00 hrs 0.00 nm 3.43 gal 106.45 gal/hr 0.00 gal/nm 0 msl 0 kts
Sat, Jun 20, 2020 KPDK KPDK 10:46 12:44 1.94 hrs 1.20 hrs 144.54 nm 16.19 gal 8.35 gal/hr 0.11 gal/nm 4518 msl 119 kts
Sat, Jun 20, 2020     10:36 10:37 0.01 hrs 0.00 hrs 0.00 nm 0.16 gal 10.87 gal/hr 0.00 gal/nm 0 msl 0 kts
Sat, Jun 20, 2020 KPDK KPDK 10:18 10:20 0.03 hrs 0.00 hrs 0.00 nm 2.44 gal 86.12 gal/hr 0.00 gal/nm 0 msl 0 kts
Sat, Jun 20, 2020 KPDK KPDK 08:26 09:57 1.5 hrs 1.14 hrs 132.39 nm 13.66 gal 9.10 gal/hr 0.10 gal/nm 3838 msl 115 kts
Sat, Jun 20, 2020     08:17 08:18 0.01 hrs 0.00 hrs 0.00 nm 0.00 gal 0.00 gal/hr 0.00 gal/nm 0 msl 0 kts
Sat, Jun 20, 2020 KPDK KPDK 08:13 10:17 2.04 hrs 1.66 hrs 216.16 nm 19.71 gal 9.68 gal/hr 0.09 gal/nm 5539 msl 128 kts
Sat, Jun 20, 2020     08:08 08:08 0.01 hrs 0.00 hrs 0.00 nm 0.00 gal 0.00 gal/hr 0.00 gal/nm 0 msl 0 kts
Fri, Jun 19, 2020 KPDK KPDK 16:00 17:51 1.83 hrs 1.20 hrs 137.71 nm 15.07 gal 8.26 gal/hr 0.11 gal/nm 3728 msl 113 kts
Fri, Jun 19, 2020 KPDK KPDK 15:54 17:47 1.86 hrs 1.30 hrs 152.75 nm 15.74 gal 8.45 gal/hr 0.10 gal/nm 4619 msl 116 kts
Fri, Jun 19, 2020     15:47 15:48 0.02 hrs 0.00 hrs 0.00 nm 0.00 gal 0.22 gal/hr 0.00 gal/nm 0 msl 0 kts
Fri, Jun 19, 2020 KPDK KPDK 15:21 15:24 0.06 hrs 0.00 hrs 0.00 nm 22.44 gal 359.04 gal/hr 0.00 gal/nm 0 msl 0 kts
Fri, Jun 19, 2020 KPDK KPDK 15:06 15:06 0 hrs 0.00 hrs 0.00 nm 0.20 gal 90.00 gal/hr 0.00 gal/nm 0 msl 0 kts
Fri, Jun 19, 2020 KPDK KPDK 13:46 15:05 1.29 hrs 0.92 hrs 114.47 nm 11.56 gal 8.95 gal/hr 0.10 gal/nm 4275 msl 122 kts
Fri, Jun 19, 2020     13:39 13:40 0.01 hrs 0.00 hrs 0.00 nm 0.00 gal 0.00 gal/hr 0.00 gal/nm 0 msl 0 kts
Fri, Jun 19, 2020 KPDK KPDK 10:57 10:57 0 hrs 0.00 hrs 0.00 nm 0.08 gal 36.00 gal/hr 0.00 gal/nm 0 msl 0 kts
Fri, Jun 19, 2020 KPDK KPDK 09:25 10:56 1.51 hrs 1.17 hrs 156.71 nm 16.09 gal 10.68 gal/hr 0.10 gal/nm 4262 msl 132 kts
Fri, Jun 19, 2020 KMAC KPDK 09:11 10:56 1.72 hrs 1.23 hrs 149.03 nm 16.17 gal 9.39 gal/hr 0.11 gal/nm 5211 msl 119 kts
Fri, Jun 19, 2020 KPDK KPDK 09:10 09:14 0.07 hrs 0.00 hrs 0.00 nm 0.07 gal 1.08 gal/hr 0.00 gal/nm 0 msl 0 kts
Fri, Jun 19, 2020 KPDK KPDK 08:58 08:59 0.03 hrs 0.00 hrs 0.00 nm 0.21 gal 8.13 gal/hr 0.00 gal/nm 0 msl 0 kts
Fri, Jun 19, 2020 KPDK KMAC 07:28 08:59 1.49 hrs 1.09 hrs 135.54 nm 13.76 gal 9.23 gal/hr 0.10 gal/nm 3685 msl 122 kts
Fri, Jun 19, 2020     07:21 07:21 0 hrs 0.00 hrs 0.00 nm 0.09 gal 19.06 gal/hr 0.00 gal/nm 0 msl 0 kts
Fri, Jun 19, 2020     07:19 07:19 0.01 hrs 0.00 hrs 0.00 nm 0.18 gal 20.90 gal/hr 0.00 gal/nm 0 msl 0 kts
Thu, Jun 18, 2020 KPDK KPDK 21:00 00:05 3.03 hrs 2.29 hrs 289.96 nm 34.12 gal 11.27 gal/hr 0.12 gal/nm 6677 msl 124 kts
Thu, Jun 18, 2020 KPDK KPDK 19:23 20:27 1.05 hrs 0.75 hrs 104.64 nm 12.86 gal 12.27 gal/hr 0.12 gal/nm 3814 msl 137 kts
Thu, Jun 18, 2020 KPDK KPDK 19:17 19:19 0.03 hrs 0.00 hrs 0.00 nm 0.55 gal 19.04 gal/hr 0.00 gal/nm 0 msl 0 kts
Thu, Jun 18, 2020 KPDK KPDK 15:38 17:35 1.92 hrs 1.33 hrs 169.28 nm 18.23 gal 9.52 gal/hr 0.11 gal/nm 4642 msl 126 kts
Thu, Jun 18, 2020     15:29 15:30 0.02 hrs 0.00 hrs 0.00 nm 1.31 gal 69.35 gal/hr 0.00 gal/nm 0 msl 0 kts
Thu, Jun 18, 2020 KPDK KPDK 12:09 12:12 0.04 hrs 0.00 hrs 0.00 nm 0.09 gal 2.25 gal/hr 0.00 gal/nm 0 msl 0 kts
Thu, Jun 18, 2020     11:08 11:08 0 hrs 0.00 hrs 0.00 nm 0.09 gal 46.29 gal/hr 0.00 gal/nm 0 msl 0 kts
Thu, Jun 18, 2020 KPDK KPDK 09:28 11:07 1.63 hrs 1.23 hrs 128.57 nm 15.31 gal 9.38 gal/hr 0.12 gal/nm 3170 msl 103 kts
Thu, Jun 18, 2020 KPDK KPDK 09:23 10:14 0.84 hrs 0.46 hrs 57.76 nm 6.42 gal 7.62 gal/hr 0.11 gal/nm 2979 msl 123 kts
Thu, Jun 18, 2020     09:18 09:18 0.01 hrs 0.00 hrs 0.00 nm 0.00 gal 0.00 gal/hr 0.00 gal/nm 0 msl 0 kts
Thu, Jun 18, 2020 KPDK KPDK 09:06 09:08 0.03 hrs 0.00 hrs 0.00 nm 0.17 gal 5.88 gal/hr 0.00 gal/nm 0 msl 0 kts
Wed, Jun 17, 2020 KPDK KPDK 10:04 11:45 1.66 hrs 0.92 hrs 102.92 nm 12.77 gal 7.69 gal/hr 0.12 gal/nm 3664 msl 110 kts
Wed, Jun 17, 2020     09:55 09:55 0.01 hrs 0.00 hrs 0.00 nm 0.26 gal 28.36 gal/hr 0.00 gal/nm 0 msl 0 kts
Wed, Jun 17, 2020 KPDK KPDK 08:40 11:06 2.38 hrs 1.89 hrs 265.81 nm 25.91 gal 10.87 gal/hr 0.10 gal/nm 7075 msl 139 kts
Wed, Jun 17, 2020 KPDK KPDK 08:20 08:22 0.05 hrs 0.00 hrs 0.00 nm 0.00 gal 0.00 gal/hr 0.00 gal/nm 0 msl 0 kts
Tue, Jun 16, 2020     16:07 16:07 0 hrs 0.00 hrs 0.00 nm 0.00 gal 0.00 gal/hr 0.00 gal/nm 0 msl 0 kts
Tue, Jun 16, 2020 KCSV KPDK 14:50 16:05 1.24 hrs 1.03 hrs 148.65 nm 14.03 gal 11.32 gal/hr 0.09 gal/nm 6042 msl 142 kts
Tue, Jun 16, 2020 KPDK KCSV 11:19 14:26 3.07 hrs 1.89 hrs 236.91 nm 26.56 gal 8.66 gal/hr 0.11 gal/nm 6132 msl 124 kts
Tue, Jun 16, 2020 KPDK KPDK 11:03 11:04 0.02 hrs 0.00 hrs 0.00 nm 0.00 gal 0.00 gal/hr 0.00 gal/nm 0 msl 0 kts
Mon, Jun 15, 2020 KTLH KPDK 15:06 17:20 2.19 hrs 1.93 hrs 260.78 nm 25.64 gal 11.70 gal/hr 0.10 gal/nm 7047 msl 133 kts
Mon, Jun 15, 2020     15:00 15:01 0.01 hrs 0.00 hrs 0.00 nm 0.07 gal 5.73 gal/hr 0.00 gal/nm 0 msl 0 kts
Mon, Jun 15, 2020 KPDK KPDK 13:55 15:57 2 hrs 1.65 hrs 204.50 nm 19.57 gal 9.79 gal/hr 0.10 gal/nm 4036 msl 122 kts
Mon, Jun 15, 2020     13:48 13:49 0.01 hrs 0.00 hrs 0.00 nm 0.00 gal 0.00 gal/hr 0.00 gal/nm 0 msl 0 kts
Mon, Jun 15, 2020 KPDK KTLH 09:27 11:17 1.82 hrs 1.45 hrs 231.18 nm 20.46 gal 11.25 gal/hr 0.09 gal/nm 7011 msl 156 kts
Mon, Jun 15, 2020 KPDK KPDK 09:15 09:16 0.03 hrs 0.00 hrs 0.00 nm 14.69 gal 568.65 gal/hr 0.00 gal/nm 0 msl 0 kts
Mon, Jun 15, 2020     07:17 07:18 0 hrs 0.00 hrs 0.00 nm 0.00 gal 0.00 gal/hr 0.00 gal/nm 0 msl 0 kts
Mon, Jun 15, 2020     07:14 07:15 0.01 hrs 0.00 hrs 0.00 nm 0.10 gal 6.79 gal/hr 0.00 gal/nm 0 msl 0 kts
Sat, Jun 13, 2020 KPDK KPDK 15:43 17:19 1.58 hrs 1.05 hrs 135.30 nm 14.99 gal 9.52 gal/hr 0.11 gal/nm 5565 msl 127 kts
Sat, Jun 13, 2020 KPDK KPDK 15:04 15:06 0.04 hrs 0.00 hrs 0.00 nm 0.54 gal 13.79 gal/hr 0.00 gal/nm 0 msl 0 kts
Sat, Jun 13, 2020 KPDK KPDK 14:10 15:36 1.4 hrs 0.87 hrs 107.57 nm 10.69 gal 7.64 gal/hr 0.10 gal/nm 3595 msl 122 kts
Sat, Jun 13, 2020     14:02 14:03 0.02 hrs 0.00 hrs 0.00 nm 0.25 gal 13.24 gal/hr 0.00 gal/nm 0 msl 0 kts
Fri, Jun 12, 2020 KPDK KPDK 17:25 19:03 1.6 hrs 1.06 hrs 113.72 nm 13.53 gal 8.44 gal/hr 0.12 gal/nm 3678 msl 105 kts
Fri, Jun 12, 2020     17:11 17:11 0.01 hrs 0.00 hrs 0.00 nm 0.17 gal 29.14 gal/hr 0.00 gal/nm 0 msl 0 kts
Fri, Jun 12, 2020 M82 KPDK 14:55 16:22 1.43 hrs 1.10 hrs 152.83 nm 14.43 gal 10.08 gal/hr 0.09 gal/nm 9023 msl 136 kts
Fri, Jun 12, 2020 M82 M82 12:28 14:09 1.66 hrs 1.31 hrs 143.37 nm 14.78 gal 8.90 gal/hr 0.10 gal/nm 4078 msl 108 kts
Fri, Jun 12, 2020     12:24 12:25 0.02 hrs 0.00 hrs 0.00 nm 0.45 gal 30.00 gal/hr 0.00 gal/nm 0 msl 0 kts
Fri, Jun 12, 2020 KPDK M82 08:36 10:07 1.49 hrs 1.16 hrs 153.15 nm 15.20 gal 10.19 gal/hr 0.10 gal/nm 10509 msl 130 kts
Thu, Jun 11, 2020 KPDK KPDK 17:20 20:32 3.15 hrs 2.17 hrs 258.12 nm 27.16 gal 8.64 gal/hr 0.11 gal/nm 5943 msl 117 kts
Thu, Jun 11, 2020 KPDK KPDK 16:49 16:54 0.08 hrs 0.00 hrs 0.00 nm 30.30 gal 401.03 gal/hr 0.00 gal/nm 0 msl 0 kts
Thu, Jun 11, 2020 KPDK KPDK 09:38 10:42 1.06 hrs 0.61 hrs 81.16 nm 9.78 gal 9.27 gal/hr 0.12 gal/nm 3441 msl 131 kts
Thu, Jun 11, 2020     09:29 09:30 0.02 hrs 0.00 hrs 0.00 nm 0.23 gal 15.33 gal/hr 0.00 gal/nm 0 msl 0 kts
Thu, Jun 11, 2020 KPDK KPDK 09:14 10:17 1.04 hrs 0.67 hrs 89.96 nm 8.90 gal 8.60 gal/hr 0.10 gal/nm 3930 msl 132 kts
Thu, Jun 11, 2020     08:43 08:43 0.01 hrs 0.00 hrs 0.00 nm 0.16 gal 17.45 gal/hr 0.00 gal/nm 0 msl 0 kts
Tue, Jun 9, 2020 KPDK KPDK 17:22 17:23 0.02 hrs 0.00 hrs 0.00 nm 0.04 gal 1.95 gal/hr 0.00 gal/nm 0 msl 0 kts
Tue, Jun 9, 2020 KPDK KPDK 16:11 17:08 0.94 hrs 0.66 hrs 80.70 nm 9.35 gal 10.00 gal/hr 0.12 gal/nm 2968 msl 121 kts
Tue, Jun 9, 2020     16:05 16:05 0 hrs 0.00 hrs 0.00 nm 0.01 gal 6.00 gal/hr 0.00 gal/nm 0 msl 0 kts
Tue, Jun 9, 2020     16:00 16:01 0.02 hrs 0.00 hrs 0.00 nm 0.26 gal 13.97 gal/hr 0.00 gal/nm 0 msl 0 kts
Tue, Jun 9, 2020     10:47 10:47 0.02 hrs 0.00 hrs 0.00 nm 0.02 gal 1.22 gal/hr 0.00 gal/nm 0 msl 0 kts
Tue, Jun 9, 2020     09:56 09:57 0.02 hrs 0.00 hrs 0.00 nm 0.04 gal 2.48 gal/hr 0.00 gal/nm 0 msl 0 kts
Mon, Jun 8, 2020 KRYY KPDK 13:11 13:40 0.48 hrs 0.18 hrs 20.46 nm 3.04 gal 6.31 gal/hr 0.15 gal/nm 2589 msl 110 kts
Mon, Jun 8, 2020     13:02 13:03 0.02 hrs 0.00 hrs 0.00 nm 0.19 gal 8.55 gal/hr 0.00 gal/nm 0 msl 0 kts
Mon, Jun 8, 2020 KRYY KRYY 08:29 08:31 0.04 hrs 0.00 hrs 0.00 nm 0.08 gal 2.38 gal/hr 0.00 gal/nm 0 msl 0 kts
Mon, Jun 8, 2020     08:26 08:27 0.01 hrs 0.00 hrs 0.00 nm 0.01 gal 0.94 gal/hr 0.00 gal/nm 0 msl 0 kts
Mon, Jun 8, 2020 KRYY KRYY 08:21 08:25 0.06 hrs 0.00 hrs 0.00 nm 0.12 gal 2.23 gal/hr 0.00 gal/nm 0 msl 0 kts
Mon, Jun 8, 2020     08:19 08:20 0.01 hrs 0.00 hrs 0.00 nm 9.09 gal 761.02 gal/hr 0.00 gal/nm 0 msl 0 kts
Mon, Jun 8, 2020     08:18 08:19 0.01 hrs 0.00 hrs 0.00 nm 0.72 gal 61.71 gal/hr 0.00 gal/nm 0 msl 0 kts
Mon, Jun 8, 2020 KRYY KRYY 06:45 06:53 0.13 hrs 0.00 hrs 0.00 nm 0.52 gal 4.02 gal/hr 0.00 gal/nm 0 msl 0 kts
Sun, Jun 7, 2020 KPDK KRYY 15:35 16:02 0.45 hrs 0.19 hrs 23.75 nm 3.22 gal 7.13 gal/hr 0.14 gal/nm 4020 msl 120 kts
Sun, Jun 7, 2020     15:23 15:24 0.02 hrs 0.00 hrs 0.00 nm 8.18 gal 507.72 gal/hr 0.00 gal/nm 0 msl 0 kts
Sun, Jun 7, 2020 KHXD KPDK 09:11 10:56 1.72 hrs 1.44 hrs 217.42 nm 20.62 gal 11.99 gal/hr 0.09 gal/nm 6008 msl 149 kts
Sun, Jun 7, 2020     08:55 08:56 0.02 hrs 0.00 hrs 0.00 nm 0.00 gal 0.00 gal/hr 0.00 gal/nm 0 msl 0 kts
Sat, Jun 6, 2020 KPDK KHXD 09:15 10:59 1.71 hrs 1.44 hrs 221.86 nm 21.04 gal 12.33 gal/hr 0.09 gal/nm 7010 msl 152 kts
Sat, Jun 6, 2020     08:48 08:49 0.01 hrs 0.00 hrs 0.00 nm 0.00 gal 0.00 gal/hr 0.00 gal/nm 0 msl 0 kts
Fri, Jun 5, 2020 KLZU KPDK 12:38 13:34 0.92 hrs 0.71 hrs 81.24 nm 9.96 gal 10.85 gal/hr 0.12 gal/nm 4115 msl 112 kts
Fri, Jun 5, 2020 KPDK KLZU 10:40 12:18 1.6 hrs 1.26 hrs 134.64 nm 16.24 gal 10.16 gal/hr 0.12 gal/nm 3037 msl 105 kts
Thu, Jun 4, 2020 47A KPDK 19:12 20:00 0.79 hrs 0.57 hrs 66.92 nm 7.10 gal 8.96 gal/hr 0.11 gal/nm 4650 msl 115 kts
Thu, Jun 4, 2020 KPDK 4GA0 17:57 19:09 1.19 hrs 0.76 hrs 93.97 nm 10.86 gal 9.13 gal/hr 0.12 gal/nm 6658 msl 121 kts
Thu, Jun 4, 2020 KPDK KPDK 17:41 17:43 0.02 hrs 0.00 hrs 0.00 nm 21.34 gal 972.46 gal/hr 0.00 gal/nm 0 msl 0 kts
Thu, Jun 4, 2020 KPDK KPDK 14:48 15:40 0.85 hrs 0.55 hrs 58.16 nm 7.53 gal 8.84 gal/hr 0.13 gal/nm 3247 msl 105 kts
Thu, Jun 4, 2020     14:47 14:48 0 hrs 0.00 hrs 0.00 nm 0.01 gal 2.00 gal/hr 0.00 gal/nm 0 msl 0 kts
Thu, Jun 4, 2020     14:41 14:41 0 hrs 0.00 hrs 0.00 nm 0.00 gal 0.00 gal/hr 0.00 gal/nm 0 msl 0 kts
Wed, Jun 3, 2020 KPDK KPDK 13:33 14:50 1.28 hrs 0.93 hrs 120.17 nm 11.58 gal 9.08 gal/hr 0.10 gal/nm 3720 msl 127 kts
Wed, Jun 3, 2020     13:23 13:24 0.01 hrs 0.00 hrs 0.00 nm 0.00 gal 0.00 gal/hr 0.00 gal/nm 0 msl 0 kts
Mon, Jun 1, 2020 KPDK KPDK 17:55 19:40 1.72 hrs 1.16 hrs 140.19 nm 15.06 gal 8.74 gal/hr 0.11 gal/nm 4519 msl 119 kts
Mon, Jun 1, 2020     17:43 17:43 0 hrs 0.00 hrs 0.00 nm 0.00 gal 0.00 gal/hr 0.00 gal/nm 0 msl 0 kts
Tue, Apr 14, 2020 KPDK KPDK 13:54 15:39 1.72 hrs 1.51 hrs 199.99 nm 19.83 gal 11.50 gal/hr 0.10 gal/nm 4758 msl 130 kts
Fri, Apr 3, 2020 KPDK KPDK 11:09 12:22 1.2 hrs 0.96 hrs 112.27 nm 11.27 gal 9.38 gal/hr 0.10 gal/nm 3103 msl 115 kts
Fri, Apr 3, 2020     10:31 10:32 0.01 hrs 0.00 hrs 0.00 nm 0.01 gal 0.89 gal/hr 0.00 gal/nm 0 msl 0 kts
Wed, Apr 1, 2020     16:12 16:12 0.01 hrs 0.00 hrs 0.00 nm 0.02 gal 4.00 gal/hr 0.00 gal/nm 0 msl 0 kts
Wed, Apr 1, 2020     11:32 11:33 0.01 hrs 0.00 hrs 0.00 nm 0.01 gal 0.80 gal/hr 0.00 gal/nm 0 msl 0 kts
Tue, Mar 31, 2020 KPDK KPDK 09:26 09:44 0.29 hrs 0.00 hrs 0.00 nm 1.34 gal 4.54 gal/hr 0.00 gal/nm 0 msl 0 kts
Fri, Mar 27, 2020 KPDK KPDK 13:34 13:38 0.05 hrs 0.00 hrs 0.00 nm 0.08 gal 1.44 gal/hr 0.00 gal/nm 0 msl 0 kts
Fri, Mar 27, 2020 KPDK KPDK 13:04 13:06 0.03 hrs 0.00 hrs 0.00 nm 0.01 gal 0.33 gal/hr 0.00 gal/nm 0 msl 0 kts
Fri, Mar 27, 2020 KPDK KPDK 12:51 13:03 0.2 hrs 0.00 hrs 0.00 nm 0.86 gal 4.34 gal/hr 0.00 gal/nm 0 msl 0 kts
Fri, Mar 27, 2020     08:19 08:19 0.01 hrs 0.00 hrs 0.00 nm 0.00 gal 0.00 gal/hr 0.00 gal/nm 0 msl 0 kts
Thu, Mar 26, 2020     15:23 15:25 0.04 hrs 0.00 hrs 0.00 nm 0.00 gal 0.00 gal/hr 0.00 gal/nm 0 msl 0 kts
Thu, Mar 26, 2020     14:05 14:05 0 hrs 0.00 hrs 0.00 nm 0.10 gal 60.00 gal/hr 0.00 gal/nm 0 msl 0 kts
Thu, Mar 26, 2020 KPDK KPDK 13:30 13:33 0.06 hrs 0.00 hrs 0.00 nm 0.01 gal 0.11 gal/hr 0.00 gal/nm 0 msl 0 kts
Thu, Mar 26, 2020 KPDK KPDK 12:25 12:27 0.03 hrs 0.00 hrs 0.00 nm 0.01 gal 0.46 gal/hr 0.00 gal/nm 0 msl 0 kts
Thu, Mar 26, 2020 KPDK KPDK 09:25 09:27 0.02 hrs 0.00 hrs 0.00 nm 0.01 gal 0.62 gal/hr 0.00 gal/nm 0 msl 0 kts
Thu, Mar 26, 2020 KPDK KPDK 09:01 09:04 0.04 hrs 0.00 hrs 0.00 nm 0.02 gal 0.41 gal/hr 0.00 gal/nm 0 msl 0 kts
Thu, Mar 26, 2020     08:54 08:55 0.01 hrs 0.00 hrs 0.00 nm 0.00 gal 0.11 gal/hr 0.00 gal/nm 0 msl 0 kts
Thu, Mar 26, 2020 KPDK KPDK 08:43 08:52 0.15 hrs 0.00 hrs 0.00 nm 0.07 gal 0.44 gal/hr 0.00 gal/nm 0 msl 0 kts
Thu, Mar 26, 2020 KPDK KPDK 08:33 08:34 0.02 hrs 0.00 hrs 0.00 nm 25.61 gal 1355.82 gal/hr 0.00 gal/nm 0 msl 0 kts
Wed, Mar 25, 2020 KAHN KPDK 12:14 13:08 0.89 hrs 0.61 hrs 70.01 nm 8.58 gal 9.66 gal/hr 0.12 gal/nm 4516 msl 114 kts
Wed, Mar 25, 2020 KAHN KAHN 11:27 12:01 0.55 hrs 0.28 hrs 28.72 nm 3.99 gal 7.24 gal/hr 0.14 gal/nm 1921 msl 100 kts
Wed, Mar 25, 2020 KPDK KAHN 10:30 11:20 0.83 hrs 0.48 hrs 63.89 nm 6.98 gal 8.42 gal/hr 0.11 gal/nm 5011 msl 132 kts
Wed, Mar 25, 2020 KPDK KPDK 10:18 10:20 0.03 hrs 0.00 hrs 0.00 nm 11.73 gal 398.38 gal/hr 0.00 gal/nm 0 msl 0 kts
Tue, Mar 24, 2020     14:15 14:16 0.01 hrs 0.00 hrs 0.00 nm 0.06 gal 4.70 gal/hr 0.00 gal/nm 0 msl 0 kts
Sun, Mar 22, 2020     16:36 16:36 0 hrs 0.00 hrs 0.00 nm 0.00 gal 0.00 gal/hr 0.00 gal/nm 0 msl 0 kts
Sun, Mar 22, 2020 KCKF KPDK 14:38 16:31 1.85 hrs 1.66 hrs 238.13 nm 20.90 gal 11.31 gal/hr 0.09 gal/nm 3083 msl 141 kts
Sun, Mar 22, 2020 KDTS KCKF 12:36 14:20 1.72 hrs 1.43 hrs 213.60 nm 19.27 gal 11.21 gal/hr 0.09 gal/nm 3028 msl 147 kts
Sun, Mar 22, 2020     12:29 12:30 0.02 hrs 0.00 hrs 0.00 nm 0.00 gal 0.00 gal/hr 0.00 gal/nm 0 msl 0 kts
Thu, Mar 19, 2020 KPDK KDTS 14:34 17:06 2.5 hrs 2.02 hrs 255.72 nm 26.51 gal 10.61 gal/hr 0.10 gal/nm 4539 msl 124 kts
Thu, Mar 19, 2020 KPDK KPDK 14:19 14:20 0.02 hrs 0.00 hrs 0.00 nm 0.36 gal 18.78 gal/hr 0.00 gal/nm 0 msl 0 kts
Tue, Mar 17, 2020     14:46 14:47 0.01 hrs 0.00 hrs 0.00 nm 0.01 gal 1.89 gal/hr 0.00 gal/nm 0 msl 0 kts
Tue, Mar 17, 2020     14:44 14:44 0 hrs 0.00 hrs 0.00 nm 0.04 gal 28.80 gal/hr 0.00 gal/nm 0 msl 0 kts
Tue, Mar 17, 2020     14:25 14:25 0.01 hrs 0.00 hrs 0.00 nm 0.21 gal 16.09 gal/hr 0.00 gal/nm 0 msl 0 kts
Mon, Mar 16, 2020 KPDK KPDK 18:24 20:12 1.77 hrs 1.35 hrs 182.71 nm 18.03 gal 10.19 gal/hr 0.10 gal/nm 7011 msl 133 kts
Mon, Mar 16, 2020     18:19 18:19 0.01 hrs 0.00 hrs 0.00 nm 0.00 gal 0.00 gal/hr 0.00 gal/nm 0 msl 0 kts
Sun, Mar 15, 2020 KPDK KPDK 10:57 10:58 0.02 hrs 0.00 hrs 0.00 nm 0.44 gal 20.57 gal/hr 0.00 gal/nm 0 msl 0 kts
Sat, Mar 14, 2020 KSSI KPDK 15:49 17:33 1.7 hrs 1.54 hrs 223.92 nm 20.40 gal 11.99 gal/hr 0.09 gal/nm 4544 msl 144 kts
Sat, Mar 14, 2020     15:39 15:40 0.02 hrs 0.00 hrs 0.00 nm 0.09 gal 5.79 gal/hr 0.00 gal/nm 0 msl 0 kts
Sat, Mar 14, 2020 09J KSSI 11:56 12:11 0.24 hrs 0.06 hrs 5.33 nm 1.07 gal 4.50 gal/hr 0.20 gal/nm 539 msl 89 kts
Fri, Mar 13, 2020 KPDK 09J 15:42 17:33 1.82 hrs 1.54 hrs 228.44 nm 18.35 gal 10.11 gal/hr 0.08 gal/nm 3671 msl 146 kts
Fri, Mar 13, 2020     15:29 15:30 0.02 hrs 0.00 hrs 0.00 nm 11.12 gal 588.71 gal/hr 0.00 gal/nm 0 msl 0 kts
Fri, Mar 13, 2020 KPDK KPDK 09:10 11:30 2.3 hrs 1.82 hrs 218.86 nm 22.43 gal 9.74 gal/hr 0.10 gal/nm 6015 msl 119 kts
Fri, Mar 13, 2020 KPDK KPDK 08:56 08:57 0.02 hrs 0.00 hrs 0.00 nm 0.01 gal 0.53 gal/hr 0.00 gal/nm 0 msl 0 kts
Fri, Mar 13, 2020     08:54 08:55 0.02 hrs 0.00 hrs 0.00 nm 0.22 gal 14.67 gal/hr 0.00 gal/nm 0 msl 0 kts
Thu, Mar 12, 2020     18:35 18:35 0 hrs 0.00 hrs 0.00 nm 0.07 gal 42.00 gal/hr 0.00 gal/nm 0 msl 0 kts
Thu, Mar 12, 2020 KPDK KPDK 16:44 18:26 1.68 hrs 0.98 hrs 113.28 nm 11.82 gal 7.04 gal/hr 0.10 gal/nm 3244 msl 114 kts
Thu, Mar 12, 2020 KPDK KPDK 16:29 16:31 0.05 hrs 0.00 hrs 0.00 nm 0.00 gal 0.00 gal/hr 0.00 gal/nm 0 msl 0 kts
Mon, Mar 9, 2020 KTOC KPDK 19:28 20:30 1.01 hrs 0.81 hrs 102.59 nm 10.40 gal 10.31 gal/hr 0.10 gal/nm 4512 msl 125 kts
Mon, Mar 9, 2020 KPDK KTOC 18:19 19:23 1.05 hrs 0.68 hrs 97.85 nm 9.04 gal 8.65 gal/hr 0.09 gal/nm 5550 msl 142 kts
Mon, Mar 9, 2020 KPDK KPDK 18:15 18:17 0.04 hrs 0.00 hrs 0.00 nm 0.05 gal 1.21 gal/hr 0.00 gal/nm 0 msl 0 kts
Mon, Mar 9, 2020     18:11 18:11 0 hrs 0.00 hrs 0.00 nm 0.11 gal 66.00 gal/hr 0.00 gal/nm 0 msl 0 kts
Mon, Mar 9, 2020 KVPC KPDK 16:52 17:54 1.02 hrs 0.79 hrs 103.07 nm 10.84 gal 10.65 gal/hr 0.11 gal/nm 3636 msl 129 kts
Mon, Mar 9, 2020 KPDK KVPC 16:05 16:38 0.56 hrs 0.31 hrs 42.86 nm 4.87 gal 8.77 gal/hr 0.11 gal/nm 5520 msl 135 kts
Mon, Mar 9, 2020 KPDK KPDK 15:49 15:51 0.02 hrs 0.00 hrs 0.00 nm 0.40 gal 21.49 gal/hr 0.00 gal/nm 0 msl 0 kts
Mon, Mar 9, 2020 KPDK KPDK 12:07 13:19 1.18 hrs 0.60 hrs 74.51 nm 8.62 gal 7.30 gal/hr 0.12 gal/nm 4462 msl 122 kts
Mon, Mar 9, 2020 KPDK KPDK 11:33 11:38 0.08 hrs 0.00 hrs 0.00 nm 22.92 gal 290.54 gal/hr 0.00 gal/nm 0 msl 0 kts
Sun, Mar 8, 2020 KPDK KPDK 15:22 15:26 0.07 hrs 0.00 hrs 0.00 nm 0.28 gal 4.10 gal/hr 0.00 gal/nm 0 msl 0 kts
Sun, Mar 8, 2020 KPDK KPDK 12:24 14:07 1.68 hrs 1.18 hrs 154.42 nm 14.82 gal 8.82 gal/hr 0.10 gal/nm 5738 msl 128 kts
Sun, Mar 8, 2020     12:16 12:16 0.01 hrs 0.00 hrs 0.00 nm 0.15 gal 12.00 gal/hr 0.00 gal/nm 0 msl 0 kts
Sun, Mar 8, 2020     11:44 11:45 0 hrs 0.00 hrs 0.00 nm 0.02 gal 4.24 gal/hr 0.00 gal/nm 0 msl 0 kts
Sat, Mar 7, 2020     13:21 13:22 0.01 hrs 0.00 hrs 0.00 nm 0.04 gal 4.97 gal/hr 0.00 gal/nm 0 msl 0 kts
Sat, Mar 7, 2020 KPDK KPDK 10:08 13:21 3.17 hrs 2.85 hrs 420.20 nm 41.05 gal 12.97 gal/hr 0.10 gal/nm 7651 msl 145 kts
Sat, Mar 7, 2020     09:50 09:51 0.01 hrs 0.00 hrs 0.00 nm 0.00 gal 0.00 gal/hr 0.00 gal/nm 0 msl 0 kts
Fri, Mar 6, 2020 KPDK KPDK 11:13 11:13 0.01 hrs 0.00 hrs 0.00 nm 0.01 gal 1.71 gal/hr 0.00 gal/nm 0 msl 0 kts
Fri, Mar 6, 2020     11:12 11:13 0.02 hrs 0.00 hrs 0.00 nm 0.04 gal 2.48 gal/hr 0.00 gal/nm 0 msl 0 kts
Fri, Mar 6, 2020     10:54 10:54 0 hrs 0.00 hrs 0.00 nm 0.03 gal 18.00 gal/hr 0.00 gal/nm 0 msl 0 kts
Thu, Mar 5, 2020 KPDK KPDK 12:30 12:53 0.38 hrs 0.00 hrs 0.00 nm 1.64 gal 4.37 gal/hr 0.00 gal/nm 0 msl 0 kts
Wed, Feb 19, 2020     14:35 14:36 0.03 hrs 0.00 hrs 0.00 nm 0.05 gal 1.71 gal/hr 0.00 gal/nm 0 msl 0 kts
Wed, Feb 19, 2020     09:40 09:43 0.04 hrs 0.00 hrs 0.00 nm 0.04 gal 0.83 gal/hr 0.00 gal/nm 0 msl 0 kts
Tue, Feb 18, 2020     15:36 15:37 0.01 hrs 0.00 hrs 0.00 nm 0.04 gal 3.27 gal/hr 0.00 gal/nm 0 msl 0 kts
Tue, Feb 18, 2020 KPDK KPDK 11:43 12:01 0.3 hrs 0.00 hrs 0.00 nm 1.28 gal 4.24 gal/hr 0.00 gal/nm 0 msl 0 kts
Mon, Feb 17, 2020 KPDK KPDK 18:54 18:57 0.04 hrs 0.00 hrs 0.00 nm 0.34 gal 7.60 gal/hr 0.00 gal/nm 0 msl 0 kts
Mon, Feb 17, 2020 KPDK KPDK 16:34 18:06 1.51 hrs 1.05 hrs 132.30 nm 13.55 gal 8.97 gal/hr 0.10 gal/nm 5308 msl 125 kts
Mon, Feb 17, 2020 KPDK KPDK 16:22 16:24 0.03 hrs 0.00 hrs 0.00 nm 0.33 gal 12.91 gal/hr 0.00 gal/nm 0 msl 0 kts
Sun, Feb 16, 2020 KGEV KPDK 14:52 16:57 2.06 hrs 1.79 hrs 222.32 nm 23.34 gal 11.33 gal/hr 0.10 gal/nm 8030 msl 122 kts
Sun, Feb 16, 2020     14:28 14:28 0.01 hrs 0.00 hrs 0.00 nm 0.22 gal 17.60 gal/hr 0.00 gal/nm 0 msl 0 kts
Fri, Feb 14, 2020 KPDK KGEV 16:43 18:31 1.77 hrs 1.37 hrs 220.39 nm 18.27 gal 10.35 gal/hr 0.08 gal/nm 9545 msl 158 kts
Fri, Feb 14, 2020     15:10 15:11 0.01 hrs 0.00 hrs 0.00 nm 0.20 gal 16.36 gal/hr 0.00 gal/nm 0 msl 0 kts
Fri, Feb 14, 2020 KPDK KPDK 11:41 13:06 1.41 hrs 0.97 hrs 127.41 nm 12.30 gal 8.75 gal/hr 0.10 gal/nm 5733 msl 129 kts
Fri, Feb 14, 2020     11:18 11:19 0.01 hrs 0.00 hrs 0.00 nm 0.24 gal 20.09 gal/hr 0.00 gal/nm 0 msl 0 kts
Wed, Feb 12, 2020 KPDK KPDK 10:40 13:42 2.98 hrs 2.58 hrs 321.03 nm 32.96 gal 11.07 gal/hr 0.10 gal/nm 7015 msl 123 kts
Wed, Feb 12, 2020 KPDK KPDK 10:25 10:28 0.05 hrs 0.00 hrs 0.00 nm 0.39 gal 7.47 gal/hr 0.00 gal/nm 0 msl 0 kts
Tue, Feb 11, 2020 KPDK KPDK 15:04 16:12 1.12 hrs 0.00 hrs 0.00 nm 0.62 gal 0.55 gal/hr 0.00 gal/nm 0 msl 0 kts
Fri, Feb 7, 2020     11:13 11:13 0 hrs 0.00 hrs 0.00 nm 0.05 gal 36.00 gal/hr 0.00 gal/nm 0 msl 0 kts
Wed, Feb 5, 2020     16:56 16:57 0.01 hrs 0.00 hrs 0.00 nm 0.07 gal 5.73 gal/hr 0.00 gal/nm 0 msl 0 kts
Wed, Feb 5, 2020     13:52 13:53 0.02 hrs 0.00 hrs 0.00 nm 0.05 gal 2.73 gal/hr 0.00 gal/nm 0 msl 0 kts
Wed, Feb 5, 2020 KPDK KPDK 11:45 13:50 2.06 hrs 1.62 hrs 201.18 nm 21.18 gal 10.30 gal/hr 0.11 gal/nm 4021 msl 122 kts
Wed, Feb 5, 2020 KPDK KPDK 11:33 11:35 0.03 hrs 0.00 hrs 0.00 nm 0.31 gal 9.79 gal/hr 0.00 gal/nm 0 msl 0 kts
Tue, Feb 4, 2020     16:03 16:04 0.01 hrs 0.00 hrs 0.00 nm 0.08 gal 7.02 gal/hr 0.00 gal/nm 0 msl 0 kts
Tue, Feb 4, 2020     15:25 15:25 0 hrs 0.00 hrs 0.00 nm 0.01 gal 7.20 gal/hr 0.00 gal/nm 0 msl 0 kts
Tue, Feb 4, 2020 KPDK KPDK 12:38 15:23 2.71 hrs 1.74 hrs 220.24 nm 23.49 gal 8.68 gal/hr 0.11 gal/nm 6320 msl 125 kts
Tue, Feb 4, 2020 KPDK KPDK 12:26 12:27 0.02 hrs 0.00 hrs 0.00 nm 18.03 gal 821.62 gal/hr 0.00 gal/nm 0 msl 0 kts
Mon, Feb 3, 2020 M82 KPDK 15:44 16:54 1.16 hrs 0.87 hrs 128.94 nm 11.31 gal 9.76 gal/hr 0.09 gal/nm 5565 msl 146 kts
Mon, Feb 3, 2020     15:36 15:37 0.02 hrs 0.00 hrs 0.00 nm 0.50 gal 32.14 gal/hr 0.00 gal/nm 0 msl 0 kts
Mon, Feb 3, 2020 M82 M82 13:41 15:05 1.39 hrs 0.97 hrs 107.19 nm 12.18 gal 8.77 gal/hr 0.11 gal/nm 4555 msl 109 kts
Mon, Feb 3, 2020 M82 M82 13:26 13:27 0.02 hrs 0.00 hrs 0.00 nm 0.00 gal 0.00 gal/hr 0.00 gal/nm 0 msl 0 kts
Mon, Feb 3, 2020 KPDK M82 09:40 11:01 1.33 hrs 0.96 hrs 132.16 nm 14.80 gal 11.11 gal/hr 0.11 gal/nm 6512 msl 136 kts
Mon, Feb 3, 2020     08:58 08:58 0.01 hrs 0.00 hrs 0.00 nm 0.05 gal 5.45 gal/hr 0.00 gal/nm 0 msl 0 kts
Thu, Jan 30, 2020     17:01 17:01 0 hrs 0.00 hrs 0.00 nm 0.01 gal 7.20 gal/hr 0.00 gal/nm 0 msl 0 kts
Thu, Jan 30, 2020 KPDK KPDK 15:48 16:56 1.12 hrs 0.80 hrs 109.69 nm 12.22 gal 10.90 gal/hr 0.11 gal/nm 4381 msl 135 kts
Thu, Jan 30, 2020     15:43 15:44 0.01 hrs 0.00 hrs 0.00 nm 0.02 gal 2.48 gal/hr 0.00 gal/nm 0 msl 0 kts
Thu, Jan 30, 2020     15:37 15:38 0.02 hrs 0.00 hrs 0.00 nm 1.01 gal 55.94 gal/hr 0.00 gal/nm 0 msl 0 kts
Thu, Jan 30, 2020 KPDK KPDK 11:19 12:17 0.95 hrs 0.37 hrs 36.64 nm 5.10 gal 5.37 gal/hr 0.14 gal/nm 2132 msl 99 kts
Thu, Jan 30, 2020 KPDK KPDK 10:48 10:51 0.06 hrs 0.00 hrs 0.00 nm 20.74 gal 350.54 gal/hr 0.00 gal/nm 0 msl 0 kts
Tue, Jan 28, 2020     11:34 11:34 0 hrs 0.00 hrs 0.00 nm 0.02 gal 9.00 gal/hr 0.00 gal/nm 0 msl 0 kts
Tue, Jan 28, 2020 KPDK KPDK 09:52 11:31 1.63 hrs 1.06 hrs 118.03 nm 13.34 gal 8.17 gal/hr 0.11 gal/nm 4354 msl 110 kts
Tue, Jan 28, 2020 KPDK KPDK 09:42 09:43 0.03 hrs 0.00 hrs 0.00 nm 0.30 gal 11.74 gal/hr 0.00 gal/nm 0 msl 0 kts
Sat, Jan 25, 2020 KPDK KPDK 16:44 17:18 0.55 hrs 0.00 hrs 0.00 nm 0.29 gal 0.53 gal/hr 0.00 gal/nm 0 msl 0 kts
Sat, Jan 25, 2020 KPDK KPDK 13:42 15:33 1.82 hrs 0.97 hrs 102.21 nm 11.85 gal 6.51 gal/hr 0.12 gal/nm 3259 msl 104 kts
Sat, Jan 25, 2020     13:31 13:32 0.02 hrs 0.00 hrs 0.00 nm 0.08 gal 3.51 gal/hr 0.00 gal/nm 0 msl 0 kts
Thu, Jan 23, 2020 KPDK KPDK 13:12 14:13 1.01 hrs 0.59 hrs 75.58 nm 8.01 gal 7.97 gal/hr 0.11 gal/nm 5085 msl 127 kts
Thu, Jan 23, 2020     13:08 13:08 0.01 hrs 0.00 hrs 0.00 nm 0.10 gal 10.91 gal/hr 0.00 gal/nm 0 msl 0 kts
Thu, Jan 23, 2020 KPDK KPDK 13:01 13:02 0.02 hrs 0.00 hrs 0.00 nm 0.12 gal 5.27 gal/hr 0.00 gal/nm 0 msl 0 kts
Wed, Jan 22, 2020 KJWN KPDK 15:40 17:40 1.96 hrs 1.66 hrs 219.45 nm 22.11 gal 11.27 gal/hr 0.10 gal/nm 7066 msl 130 kts
Wed, Jan 22, 2020 KJWN KJWN 15:25 15:26 0.03 hrs 0.00 hrs 0.00 nm 0.34 gal 11.77 gal/hr 0.00 gal/nm 0 msl 0 kts
Wed, Jan 22, 2020 KPDK KJWN 10:09 11:55 1.74 hrs 1.33 hrs 208.69 nm 17.60 gal 10.14 gal/hr 0.08 gal/nm 6048 msl 154 kts
Wed, Jan 22, 2020 KPDK KPDK 09:58 10:00 0.04 hrs 0.00 hrs 0.00 nm 8.59 gal 237.88 gal/hr 0.00 gal/nm 0 msl 0 kts
Wed, Jan 22, 2020     09:06 09:06 0.01 hrs 0.00 hrs 0.00 nm 0.17 gal 20.40 gal/hr 0.00 gal/nm 0 msl 0 kts
Tue, Jan 21, 2020 KJQF KPDK 21:00 22:35 1.55 hrs 1.26 hrs 215.09 nm 16.48 gal 10.66 gal/hr 0.08 gal/nm 6512 msl 168 kts
Tue, Jan 21, 2020 KPDK KJQF 18:39 20:40 1.98 hrs 1.68 hrs 205.10 nm 21.63 gal 10.91 gal/hr 0.11 gal/nm 7520 msl 121 kts
Tue, Jan 21, 2020 KPDK KPDK 18:26 18:28 0.02 hrs 0.00 hrs 0.00 nm 0.87 gal 39.65 gal/hr 0.00 gal/nm 0 msl 0 kts
Tue, Jan 21, 2020     17:16 17:16 0 hrs 0.00 hrs 0.00 nm 0.10 gal 21.18 gal/hr 0.00 gal/nm 0 msl 0 kts
Tue, Jan 21, 2020     17:15 17:15 0 hrs 0.00 hrs 0.00 nm 0.01 gal 7.20 gal/hr 0.00 gal/nm 0 msl 0 kts
Tue, Jan 21, 2020     17:09 17:09 0 hrs 0.00 hrs 0.00 nm 0.02 gal 18.00 gal/hr 0.00 gal/nm 0 msl 0 kts
Tue, Jan 21, 2020     17:04 17:04 0 hrs 0.00 hrs 0.00 nm 0.10 gal 72.00 gal/hr 0.00 gal/nm 0 msl 0 kts
Tue, Jan 21, 2020     16:54 16:54 0 hrs 0.00 hrs 0.00 nm 0.07 gal 42.00 gal/hr 0.00 gal/nm 0 msl 0 kts
Tue, Jan 21, 2020 KPDK KPDK 15:42 16:53 1.17 hrs 0.73 hrs 83.86 nm 8.66 gal 7.41 gal/hr 0.10 gal/nm 4635 msl 114 kts
Tue, Jan 21, 2020 KPDK KPDK 15:28 15:29 0.02 hrs 0.00 hrs 0.00 nm 0.13 gal 5.85 gal/hr 0.00 gal/nm 0 msl 0 kts
Mon, Jan 20, 2020 KPDK KPDK 10:01 12:58 2.89 hrs 2.41 hrs 317.76 nm 30.42 gal 10.53 gal/hr 0.10 gal/nm 5710 msl 130 kts
Mon, Jan 20, 2020 KPDK KPDK 09:45 09:47 0.04 hrs 0.00 hrs 0.00 nm 17.96 gal 458.55 gal/hr 0.00 gal/nm 0 msl 0 kts
Sat, Jan 18, 2020 KPDK KPDK 14:03 15:17 1.23 hrs 0.00 hrs 0.00 nm 0.07 gal 0.06 gal/hr 0.00 gal/nm 0 msl 0 kts
Fri, Jan 17, 2020 KPDK KPDK 14:23 15:59 1.59 hrs 0.98 hrs 127.20 nm 13.60 gal 8.58 gal/hr 0.11 gal/nm 4739 msl 128 kts
Fri, Jan 17, 2020     14:01 14:02 0.02 hrs 0.00 hrs 0.00 nm 0.17 gal 11.33 gal/hr 0.00 gal/nm 0 msl 0 kts
Fri, Jan 17, 2020 KPDK KPDK 10:05 12:28 2.35 hrs 1.91 hrs 245.33 nm 23.97 gal 10.20 gal/hr 0.10 gal/nm 5883 msl 127 kts
Fri, Jan 17, 2020 KPDK KPDK 09:50 09:53 0.05 hrs 0.00 hrs 0.00 nm 0.13 gal 2.49 gal/hr 0.00 gal/nm 0 msl 0 kts
Thu, Jan 16, 2020 KPDK KPDK 10:18 11:42 1.37 hrs 0.00 hrs 0.00 nm 0.39 gal 0.28 gal/hr 0.00 gal/nm 0 msl 0 kts
Fri, Jan 10, 2020 KPDK KPDK 15:55 17:47 1.84 hrs 1.29 hrs 140.20 nm 15.06 gal 8.17 gal/hr 0.11 gal/nm 3360 msl 107 kts
Fri, Jan 10, 2020     15:46 15:47 0.01 hrs 0.00 hrs 0.00 nm 0.11 gal 22.00 gal/hr 0.00 gal/nm 0 msl 0 kts
Thu, Jan 9, 2020     14:17 14:17 0.01 hrs 0.00 hrs 0.00 nm 0.08 gal 6.26 gal/hr 0.00 gal/nm 0 msl 0 kts
Wed, Jan 8, 2020     17:53 17:53 0.01 hrs 0.00 hrs 0.00 nm 2.92 gal 250.29 gal/hr 0.00 gal/nm 0 msl 0 kts
Wed, Jan 8, 2020 KOKZ KPDK 16:49 17:41 0.85 hrs 0.74 hrs 97.04 nm 9.89 gal 11.71 gal/hr 0.10 gal/nm 4576 msl 129 kts
Wed, Jan 8, 2020 KIIY KOKZ 15:49 16:18 0.47 hrs 0.37 hrs 54.17 nm 5.20 gal 11.04 gal/hr 0.10 gal/nm 4518 msl 145 kts
Wed, Jan 8, 2020 KPDK KIIY 14:15 15:04 0.81 hrs 0.52 hrs 79.07 nm 6.99 gal 8.61 gal/hr 0.09 gal/nm 5515 msl 151 kts
Wed, Jan 8, 2020     14:03 14:04 0.01 hrs 0.00 hrs 0.00 nm 0.08 gal 6.55 gal/hr 0.00 gal/nm 0 msl 0 kts
Tue, Jan 7, 2020     14:31 14:31 0 hrs 0.00 hrs 0.00 nm 0.15 gal 90.00 gal/hr 0.00 gal/nm 0 msl 0 kts
Tue, Jan 7, 2020 KPDK KPDK 12:37 14:26 1.78 hrs 1.16 hrs 154.85 nm 14.72 gal 8.26 gal/hr 0.10 gal/nm 5530 msl 131 kts
Tue, Jan 7, 2020     12:24 12:25 0.02 hrs 0.00 hrs 0.00 nm 0.52 gal 33.43 gal/hr 0.00 gal/nm 0 msl 0 kts
Mon, Jan 6, 2020 KPDK KPDK 15:23 16:29 1.08 hrs 0.77 hrs 109.93 nm 12.73 gal 11.73 gal/hr 0.12 gal/nm 4532 msl 140 kts
Mon, Jan 6, 2020     15:15 15:16 0.01 hrs 0.00 hrs 0.00 nm 0.61 gal 49.91 gal/hr 0.00 gal/nm 0 msl 0 kts
Mon, Jan 6, 2020     15:11 15:11 0 hrs 0.00 hrs 0.00 nm 0.00 gal 0.00 gal/hr 0.00 gal/nm 0 msl 0 kts
Mon, Jan 6, 2020 KPDK KPDK 12:54 14:56 2.01 hrs 1.48 hrs 185.75 nm 18.23 gal 9.09 gal/hr 0.10 gal/nm 5513 msl 124 kts
Mon, Jan 6, 2020 KPDK KPDK 12:38 12:39 0.02 hrs 0.00 hrs 0.00 nm 16.91 gal 760.95 gal/hr 0.00 gal/nm 0 msl 0 kts
Sat, Jan 4, 2020 KPDK KPDK 16:21 16:27 0.09 hrs 0.00 hrs 0.00 nm 13.65 gal 148.01 gal/hr 0.00 gal/nm 0 msl 0 kts
Wed, Jan 1, 2020     14:47 14:47 0 hrs 0.00 hrs 0.00 nm 0.19 gal 136.80 gal/hr 0.00 gal/nm 0 msl 0 kts
Wed, Jan 1, 2020     12:37 12:37 0 hrs 0.00 hrs 0.00 nm 0.48 gal 288.00 gal/hr 0.00 gal/nm 0 msl 0 kts
Wed, Jan 1, 2020 KPDK KPDK 10:19 12:34 2.21 hrs 1.64 hrs 182.30 nm 19.59 gal 8.87 gal/hr 0.11 gal/nm 5036 msl 110 kts
Wed, Jan 1, 2020 KPDK KPDK 09:48 09:50 0.02 hrs 0.00 hrs 0.00 nm 0.03 gal 1.61 gal/hr 0.00 gal/nm 0 msl 0 kts
Tue, Dec 31, 2019 KPDK KPDK 10:20 12:40 2.3 hrs 1.93 hrs 216.41 nm 24.00 gal 10.43 gal/hr 0.11 gal/nm 9156 msl 111 kts
Tue, Dec 31, 2019     09:50 09:51 0.02 hrs 0.00 hrs 0.00 nm 0.01 gal 0.64 gal/hr 0.00 gal/nm 0 msl 0 kts
Sat, Dec 28, 2019     18:14 18:14 0 hrs 0.00 hrs 0.00 nm 0.01 gal 6.00 gal/hr 0.00 gal/nm 0 msl 0 kts
Sat, Dec 28, 2019 KPDK KPDK 15:13 18:07 2.86 hrs 2.22 hrs 278.45 nm 27.91 gal 9.77 gal/hr 0.10 gal/nm 6079 msl 124 kts
Sat, Dec 28, 2019 KPDK KPDK 14:57 15:01 0.05 hrs 0.00 hrs 0.00 nm 1.11 gal 21.37 gal/hr 0.00 gal/nm 0 msl 0 kts
Fri, Dec 27, 2019 KPDK KPDK 17:47 17:48 0.01 hrs 0.00 hrs 0.00 nm 0.98 gal 80.18 gal/hr 0.00 gal/nm 0 msl 0 kts
Fri, Dec 27, 2019 KPDK KPDK 16:43 17:47 1.05 hrs 0.64 hrs 84.06 nm 8.79 gal 8.40 gal/hr 0.10 gal/nm 3513 msl 129 kts
Fri, Dec 27, 2019     16:30 16:31 0.02 hrs 0.00 hrs 0.00 nm 0.60 gal 27.00 gal/hr 0.00 gal/nm 0 msl 0 kts
Thu, Dec 26, 2019     18:44 18:44 0 hrs 0.00 hrs 0.00 nm 0.02 gal 14.40 gal/hr 0.00 gal/nm 0 msl 0 kts
Thu, Dec 26, 2019 KPDK KPDK 17:43 18:37 0.89 hrs 0.50 hrs 54.21 nm 6.33 gal 7.16 gal/hr 0.12 gal/nm 3221 msl 106 kts
Thu, Dec 26, 2019 KPDK KPDK 17:10 17:13 0.05 hrs 0.00 hrs 0.00 nm 0.00 gal 0.00 gal/hr 0.00 gal/nm 0 msl 0 kts
Thu, Dec 26, 2019     15:56 15:56 0 hrs 0.00 hrs 0.00 nm 0.00 gal 0.00 gal/hr 0.00 gal/nm 0 msl 0 kts
Thu, Dec 26, 2019     15:10 15:11 0.02 hrs 0.00 hrs 0.00 nm 0.14 gal 8.84 gal/hr 0.00 gal/nm 0 msl 0 kts
Thu, Dec 26, 2019     10:50 10:50 0 hrs 0.00 hrs 0.00 nm 0.10 gal 51.43 gal/hr 0.00 gal/nm 0 msl 0 kts
Thu, Dec 26, 2019 KPDK KPDK 09:25 10:47 1.34 hrs 0.82 hrs 93.04 nm 10.31 gal 7.70 gal/hr 0.11 gal/nm 4035 msl 112 kts
Thu, Dec 26, 2019     09:06 09:06 0.01 hrs 0.00 hrs 0.00 nm 0.00 gal 0.00 gal/hr 0.00 gal/nm 0 msl 0 kts
Sat, Dec 21, 2019 KPDK KPDK 12:48 12:48 0 hrs 0.00 hrs 0.00 nm 0.08 gal 28.80 gal/hr 0.00 gal/nm 0 msl 0 kts
Sat, Dec 21, 2019 KPDK KPDK 10:19 12:48 2.43 hrs 1.46 hrs 165.13 nm 17.56 gal 7.23 gal/hr 0.11 gal/nm 3724 msl 111 kts
Sat, Dec 21, 2019     10:09 10:10 0.01 hrs 0.00 hrs 0.00 nm 11.65 gal 1310.62 gal/hr 0.00 gal/nm 0 msl 0 kts
Fri, Dec 20, 2019 KPDK KPDK 15:32 17:40 2.09 hrs 1.35 hrs 149.15 nm 15.77 gal 7.53 gal/hr 0.11 gal/nm 4049 msl 109 kts
Fri, Dec 20, 2019 KPDK KPDK 15:23 15:25 0.03 hrs 0.00 hrs 0.00 nm 0.00 gal 0.00 gal/hr 0.00 gal/nm 0 msl 0 kts
Sun, Dec 15, 2019     17:15 17:15 0 hrs 0.00 hrs 0.00 nm 0.01 gal 7.20 gal/hr 0.00 gal/nm 0 msl 0 kts
Sun, Dec 15, 2019 3J7 KPDK 16:08 17:04 0.92 hrs 0.71 hrs 93.53 nm 9.53 gal 10.36 gal/hr 0.10 gal/nm 3756 msl 129 kts
Sun, Dec 15, 2019 KPDK 3J7 12:34 13:26 0.85 hrs 0.48 hrs 68.87 nm 6.87 gal 8.10 gal/hr 0.10 gal/nm 3517 msl 142 kts
Sun, Dec 15, 2019     11:18 11:18 0.01 hrs 0.00 hrs 0.00 nm 0.05 gal 4.00 gal/hr 0.00 gal/nm 0 msl 0 kts
Wed, Dec 11, 2019     18:43 18:43 0 hrs 0.00 hrs 0.00 nm 0.00 gal 0.00 gal/hr 0.00 gal/nm 0 msl 0 kts
Wed, Dec 11, 2019 KRYY KPDK 18:14 18:42 0.46 hrs 0.20 hrs 25.19 nm 3.19 gal 7.01 gal/hr 0.13 gal/nm 3515 msl 123 kts
Wed, Dec 11, 2019     18:08 18:10 0.02 hrs 0.00 hrs 0.00 nm 0.29 gal 15.58 gal/hr 0.00 gal/nm 0 msl 0 kts
Wed, Dec 11, 2019     16:45 16:45 0.01 hrs 0.00 hrs 0.00 nm 0.03 gal 2.57 gal/hr 0.00 gal/nm 0 msl 0 kts
Wed, Dec 11, 2019 KRYY KRYY 15:20 15:23 0.05 hrs 0.00 hrs 0.00 nm 0.09 gal 1.79 gal/hr 0.00 gal/nm 0 msl 0 kts
Wed, Dec 11, 2019 KPDK KRYY 11:40 12:06 0.44 hrs 0.19 hrs 18.93 nm 3.14 gal 7.20 gal/hr 0.17 gal/nm 4043 msl 101 kts
Wed, Dec 11, 2019     11:13 11:13 0.01 hrs 0.00 hrs 0.00 nm 0.16 gal 13.71 gal/hr 0.00 gal/nm 0 msl 0 kts
Fri, Dec 6, 2019 KJWN KPDK 12:37 14:19 1.67 hrs 1.37 hrs 194.43 nm 18.55 gal 11.09 gal/hr 0.10 gal/nm 3716 msl 140 kts
Fri, Dec 6, 2019     12:35 12:36 0.01 hrs 0.00 hrs 0.00 nm 0.28 gal 23.44 gal/hr 0.00 gal/nm 0 msl 0 kts
Thu, Dec 5, 2019 KPDK KJWN 15:49 17:43 1.86 hrs 1.39 hrs 202.42 nm 19.02 gal 10.24 gal/hr 0.09 gal/nm 6070 msl 143 kts
Thu, Dec 5, 2019 KPDK KPDK 15:38 15:39 0.03 hrs 0.00 hrs 0.00 nm 0.00 gal 0.00 gal/hr 0.00 gal/nm 0 msl 0 kts
Thu, Dec 5, 2019     13:31 13:31 0 hrs 0.00 hrs 0.00 nm 0.00 gal 0.00 gal/hr 0.00 gal/nm 0 msl 0 kts
Thu, Dec 5, 2019     13:30 13:31 0.01 hrs 0.00 hrs 0.00 nm 0.00 gal 0.00 gal/hr 0.00 gal/nm 0 msl 0 kts
Tue, Dec 3, 2019     14:33 14:34 0.01 hrs 0.00 hrs 0.00 nm 0.02 gal 1.67 gal/hr 0.00 gal/nm 0 msl 0 kts
Wed, Nov 27, 2019     12:55 12:55 0 hrs 0.00 hrs 0.00 nm 0.01 gal 6.00 gal/hr 0.00 gal/nm 0 msl 0 kts
Wed, Nov 27, 2019     12:52 12:52 0 hrs 0.00 hrs 0.00 nm 0.01 gal 4.50 gal/hr 0.00 gal/nm 0 msl 0 kts
Wed, Nov 27, 2019     12:51 12:52 0.01 hrs 0.00 hrs 0.00 nm 0.22 gal 17.22 gal/hr 0.00 gal/nm 0 msl 0 kts
Wed, Nov 27, 2019     12:12 12:12 0.01 hrs 0.00 hrs 0.00 nm 0.05 gal 10.00 gal/hr 0.00 gal/nm 0 msl 0 kts
Tue, Nov 26, 2019 D73 KPDK 15:48 16:18 0.49 hrs 0.27 hrs 36.00 nm 3.96 gal 8.10 gal/hr 0.11 gal/nm 3087 msl 131 kts
Tue, Nov 26, 2019 KJWN D73 12:27 14:23 1.9 hrs 1.67 hrs 235.63 nm 22.05 gal 11.59 gal/hr 0.09 gal/nm 5508 msl 139 kts
Tue, Nov 26, 2019     12:21 12:22 0.02 hrs 0.00 hrs 0.00 nm 0.00 gal 0.00 gal/hr 0.00 gal/nm 0 msl 0 kts
Mon, Nov 25, 2019 D73 KJWN 12:44 14:35 1.82 hrs 1.59 hrs 228.40 nm 20.55 gal 11.30 gal/hr 0.09 gal/nm 5091 msl 141 kts
Mon, Nov 25, 2019 KPDK D73 11:38 12:18 0.66 hrs 0.30 hrs 41.67 nm 4.56 gal 6.89 gal/hr 0.11 gal/nm 3541 msl 136 kts
Mon, Nov 25, 2019     11:31 11:31 0.01 hrs 0.00 hrs 0.00 nm 0.06 gal 5.14 gal/hr 0.00 gal/nm 0 msl 0 kts
Mon, Nov 25, 2019     11:29 11:30 0.02 hrs 0.00 hrs 0.00 nm 22.36 gal 1437.43 gal/hr 0.00 gal/nm 0 msl 0 kts
Mon, Nov 25, 2019 KJZI KPDK 09:23 11:18 1.89 hrs 1.67 hrs 229.17 nm 21.57 gal 11.40 gal/hr 0.09 gal/nm 4514 msl 135 kts
Mon, Nov 25, 2019     09:19 09:19 0.01 hrs 0.00 hrs 0.00 nm 4.70 gal 846.00 gal/hr 0.00 gal/nm 0 msl 0 kts
Sun, Nov 24, 2019 KPDK KJZI 11:42 13:19 1.59 hrs 1.35 hrs 233.99 nm 18.41 gal 11.56 gal/hr 0.08 gal/nm 7528 msl 171 kts
Sun, Nov 24, 2019     11:35 11:35 0.01 hrs 0.00 hrs 0.00 nm 0.00 gal 0.00 gal/hr 0.00 gal/nm 0 msl 0 kts
Fri, Nov 22, 2019     16:27 16:28 0.01 hrs 0.00 hrs 0.00 nm 0.02 gal 1.60 gal/hr 0.00 gal/nm 0 msl 0 kts
Fri, Nov 22, 2019 KPDK KPDK 14:10 14:11 0.03 hrs 0.00 hrs 0.00 nm 0.09 gal 3.15 gal/hr 0.00 gal/nm 0 msl 0 kts
Fri, Nov 22, 2019 KPDK KPDK 10:44 12:18 1.56 hrs 1.01 hrs 113.80 nm 12.97 gal 8.33 gal/hr 0.11 gal/nm 4169 msl 111 kts
Fri, Nov 22, 2019     10:29 10:30 0.02 hrs 0.00 hrs 0.00 nm 0.83 gal 37.35 gal/hr 0.00 gal/nm 0 msl 0 kts
Thu, Nov 21, 2019 KPDK KPDK 14:20 15:56 1.56 hrs 0.55 hrs 67.54 nm 7.78 gal 4.98 gal/hr 0.12 gal/nm 4573 msl 121 kts
Thu, Nov 21, 2019 KPDK KPDK 13:27 13:28 0.01 hrs 0.00 hrs 0.00 nm 18.45 gal 1509.55 gal/hr 0.00 gal/nm 0 msl 0 kts
Thu, Nov 21, 2019 KPDK KPDK 13:08 13:11 0.05 hrs 0.00 hrs 0.00 nm 0.67 gal 14.71 gal/hr 0.00 gal/nm 0 msl 0 kts
Thu, Nov 21, 2019 KPDK KPDK 10:13 12:48 2.54 hrs 1.72 hrs 211.92 nm 21.59 gal 8.51 gal/hr 0.10 gal/nm 4629 msl 122 kts
Thu, Nov 21, 2019 KPDK KPDK 09:58 10:04 0.1 hrs 0.00 hrs 0.00 nm 24.02 gal 242.90 gal/hr 0.00 gal/nm 0 msl 0 kts
Wed, Nov 20, 2019 KPDK KPDK 19:53 21:21 1.44 hrs 0.90 hrs 92.44 nm 10.74 gal 7.43 gal/hr 0.12 gal/nm 2678 msl 101 kts
Wed, Nov 20, 2019 KPDK KPDK 19:34 19:36 0.02 hrs 0.00 hrs 0.00 nm 12.41 gal 565.52 gal/hr 0.00 gal/nm 0 msl 0 kts
Wed, Nov 20, 2019 KPDK KPDK 14:02 16:41 2.61 hrs 2.19 hrs 288.49 nm 27.06 gal 10.36 gal/hr 0.09 gal/nm 7531 msl 130 kts
Wed, Nov 20, 2019 KPDK KPDK 12:43 13:39 0.92 hrs 0.47 hrs 57.30 nm 6.36 gal 6.92 gal/hr 0.11 gal/nm 3339 msl 121 kts
Wed, Nov 20, 2019 KPDK KPDK 12:23 12:26 0.05 hrs 0.00 hrs 0.00 nm 0.24 gal 5.27 gal/hr 0.00 gal/nm 0 msl 0 kts
Tue, Nov 19, 2019 KPDK KPDK 12:17 15:10 2.84 hrs 1.85 hrs 220.77 nm 23.17 gal 8.17 gal/hr 0.10 gal/nm 4522 msl 118 kts
Tue, Nov 19, 2019     11:58 11:59 0.02 hrs 0.00 hrs 0.00 nm 0.33 gal 17.47 gal/hr 0.00 gal/nm 0 msl 0 kts
Mon, Nov 18, 2019 KPDK KPDK 16:36 18:41 2.05 hrs 1.40 hrs 162.13 nm 17.36 gal 8.49 gal/hr 0.11 gal/nm 5218 msl 114 kts
Mon, Nov 18, 2019     16:13 16:14 0.01 hrs 0.00 hrs 0.00 nm 16.72 gal 1881.00 gal/hr 0.00 gal/nm 0 msl 0 kts
Mon, Nov 18, 2019 KPDK KPDK 14:30 14:34 0.07 hrs 0.00 hrs 0.00 nm 0.78 gal 11.32 gal/hr 0.00 gal/nm 0 msl 0 kts
Mon, Nov 18, 2019     13:32 13:33 0 hrs 0.00 hrs 0.00 nm 0.01 gal 7.20 gal/hr 0.00 gal/nm 0 msl 0 kts
Sun, Nov 17, 2019 KCHA KPDK 07:57 09:05 1.12 hrs 0.64 hrs 86.95 nm 9.11 gal 8.14 gal/hr 0.10 gal/nm 4228 msl 134 kts
Sat, Nov 16, 2019 KPDK KCHA 16:22 17:17 0.91 hrs 0.60 hrs 84.33 nm 9.18 gal 10.14 gal/hr 0.11 gal/nm 6548 msl 137 kts
Sat, Nov 16, 2019 KPDK KPDK 16:07 16:07 0.01 hrs 0.00 hrs 0.00 nm 0.07 gal 12.60 gal/hr 0.00 gal/nm 0 msl 0 kts
Sat, Nov 16, 2019     15:49 15:49 0 hrs 0.00 hrs 0.00 nm 0.02 gal 12.00 gal/hr 0.00 gal/nm 0 msl 0 kts
Sat, Nov 16, 2019 KPDK KPDK 14:21 15:47 1.41 hrs 0.86 hrs 100.53 nm 11.61 gal 8.26 gal/hr 0.12 gal/nm 4590 msl 115 kts
Sat, Nov 16, 2019     14:11 14:12 0.01 hrs 0.00 hrs 0.00 nm 0.29 gal 23.20 gal/hr 0.00 gal/nm 0 msl 0 kts
Sat, Nov 16, 2019 KPDK KPDK 12:25 14:03 1.61 hrs 1.06 hrs 135.48 nm 13.64 gal 8.46 gal/hr 0.10 gal/nm 4642 msl 126 kts
Sat, Nov 16, 2019 KPDK KPDK 12:06 12:09 0.06 hrs 0.00 hrs 0.00 nm 0.13 gal 2.33 gal/hr 0.00 gal/nm 0 msl 0 kts
Thu, Nov 14, 2019 KPDK KPDK 16:38 18:09 1.51 hrs 0.86 hrs 115.48 nm 11.87 gal 7.89 gal/hr 0.10 gal/nm 6063 msl 132 kts
Thu, Nov 14, 2019 KPDK KPDK 16:22 16:24 0.03 hrs 0.00 hrs 0.00 nm 0.02 gal 0.78 gal/hr 0.00 gal/nm 0 msl 0 kts
Thu, Nov 14, 2019     16:21 16:22 0.01 hrs 0.00 hrs 0.00 nm 0.07 gal 5.86 gal/hr 0.00 gal/nm 0 msl 0 kts
Thu, Nov 14, 2019 KPDK KPDK 13:11 13:13 0.03 hrs 0.00 hrs 0.00 nm 0.01 gal 0.35 gal/hr 0.00 gal/nm 0 msl 0 kts
Thu, Nov 14, 2019     12:36 12:37 0.01 hrs 0.00 hrs 0.00 nm 0.02 gal 1.57 gal/hr 0.00 gal/nm 0 msl 0 kts
Thu, Nov 14, 2019     12:29 12:30 0 hrs 0.00 hrs 0.00 nm 0.04 gal 36.00 gal/hr 0.00 gal/nm 0 msl 0 kts
Wed, Nov 13, 2019     18:19 18:19 0 hrs 0.00 hrs 0.00 nm 0.23 gal 48.71 gal/hr 0.00 gal/nm 0 msl 0 kts
Wed, Nov 13, 2019 KLGC KPDK 17:33 18:15 0.7 hrs 0.56 hrs 77.97 nm 7.65 gal 11.01 gal/hr 0.10 gal/nm 3752 msl 136 kts
Wed, Nov 13, 2019 KAUO KLGC 15:07 15:30 0.38 hrs 0.27 hrs 34.93 nm 3.84 gal 10.24 gal/hr 0.11 gal/nm 3148 msl 126 kts
Wed, Nov 13, 2019 KAUO KAUO 15:02 15:06 0.06 hrs 0.00 hrs 0.00 nm 0.23 gal 3.87 gal/hr 0.00 gal/nm 0 msl 0 kts
Wed, Nov 13, 2019 KLGC KAUO 13:21 13:49 0.46 hrs 0.29 hrs 36.88 nm 4.03 gal 8.79 gal/hr 0.11 gal/nm 3129 msl 125 kts
Wed, Nov 13, 2019     11:15 11:15 0 hrs 0.00 hrs 0.00 nm 0.01 gal 6.00 gal/hr 0.00 gal/nm 0 msl 0 kts
Wed, Nov 13, 2019 KPDK KLGC 10:20 11:13 0.87 hrs 0.63 hrs 89.45 nm 9.36 gal 10.74 gal/hr 0.10 gal/nm 4629 msl 141 kts
Wed, Nov 13, 2019 KPDK KPDK 10:11 10:14 0.05 hrs 0.00 hrs 0.00 nm 0.27 gal 5.52 gal/hr 0.00 gal/nm 0 msl 0 kts
Mon, Nov 11, 2019 KPDK KPDK 18:48 20:18 1.47 hrs 0.00 hrs 0.00 nm 0.64 gal 0.44 gal/hr 0.00 gal/nm 0 msl 0 kts
Mon, Nov 11, 2019 KPDK KPDK 18:07 18:11 0.08 hrs 0.00 hrs 0.00 nm 0.00 gal 0.00 gal/hr 0.00 gal/nm 0 msl 0 kts
Mon, Nov 11, 2019     15:14 15:14 0.01 hrs 0.00 hrs 0.00 nm 0.00 gal 0.00 gal/hr 0.00 gal/nm 0 msl 0 kts
Sat, Nov 9, 2019 KVPC KPDK 18:53 19:20 0.45 hrs 0.27 hrs 33.94 nm 3.75 gal 8.37 gal/hr 0.11 gal/nm 3906 msl 124 kts
Sat, Nov 9, 2019 KPDK KVPC 17:03 18:43 1.65 hrs 1.07 hrs 116.29 nm 13.85 gal 8.40 gal/hr 0.12 gal/nm 4826 msl 107 kts
Sat, Nov 9, 2019     16:46 16:47 0.02 hrs 0.00 hrs 0.00 nm 18.35 gal 971.47 gal/hr 0.00 gal/nm 0 msl 0 kts
Sat, Nov 9, 2019 KPDK KPDK 10:49 12:01 1.17 hrs 0.62 hrs 77.30 nm 9.66 gal 8.24 gal/hr 0.12 gal/nm 5072 msl 123 kts
Sat, Nov 9, 2019 KPDK KPDK 10:19 10:22 0.04 hrs 0.00 hrs 0.00 nm 0.24 gal 6.17 gal/hr 0.00 gal/nm 0 msl 0 kts
Fri, Nov 8, 2019 KPDK KPDK 14:34 14:47 0.22 hrs 0.00 hrs 0.00 nm 0.07 gal 0.32 gal/hr 0.00 gal/nm 0 msl 0 kts
Thu, Nov 7, 2019     14:49 14:49 0 hrs 0.00 hrs 0.00 nm 0.05 gal 36.00 gal/hr 0.00 gal/nm 0 msl 0 kts
Thu, Nov 7, 2019     12:16 12:16 0.01 hrs 0.00 hrs 0.00 nm 0.11 gal 12.77 gal/hr 0.00 gal/nm 0 msl 0 kts
Thu, Nov 7, 2019 KPDK KPDK 09:49 12:07 2.25 hrs 1.66 hrs 217.99 nm 22.40 gal 9.93 gal/hr 0.10 gal/nm 6016 msl 129 kts
Thu, Nov 7, 2019 KPDK KPDK 09:36 09:39 0.05 hrs 0.00 hrs 0.00 nm 0.39 gal 7.47 gal/hr 0.00 gal/nm 0 msl 0 kts
Wed, Nov 6, 2019 KDBN KPDK 18:05 19:07 1.03 hrs 0.78 hrs 114.20 nm 10.18 gal 9.89 gal/hr 0.09 gal/nm 4511 msl 144 kts
Wed, Nov 6, 2019 KDBN KDBN 16:25 17:39 1.22 hrs 0.89 hrs 98.47 nm 11.13 gal 9.16 gal/hr 0.11 gal/nm 5239 msl 109 kts
Wed, Nov 6, 2019     16:15 16:15 0.01 hrs 0.00 hrs 0.00 nm 0.47 gal 51.27 gal/hr 0.00 gal/nm 0 msl 0 kts
Wed, Nov 6, 2019 KPDK KDBN 12:00 13:43 1.69 hrs 1.31 hrs 160.69 nm 16.50 gal 9.78 gal/hr 0.10 gal/nm 4761 msl 121 kts
Wed, Nov 6, 2019     11:38 11:39 0.01 hrs 0.00 hrs 0.00 nm 0.00 gal 0.00 gal/hr 0.00 gal/nm 0 msl 0 kts
Tue, Nov 5, 2019 KPDK KPDK 17:47 19:07 1.33 hrs 0.96 hrs 113.82 nm 12.50 gal 9.43 gal/hr 0.11 gal/nm 3693 msl 116 kts
Tue, Nov 5, 2019     17:31 17:32 0.02 hrs 0.00 hrs 0.00 nm 0.00 gal 0.00 gal/hr 0.00 gal/nm 0 msl 0 kts
Tue, Nov 5, 2019     14:30 14:30 0 hrs 0.00 hrs 0.00 nm 0.00 gal 0.00 gal/hr 0.00 gal/nm 0 msl 0 kts
Mon, Nov 4, 2019 KPDK KPDK 19:33 20:15 0.68 hrs 0.29 hrs 25.94 nm 4.10 gal 6.01 gal/hr 0.16 gal/nm 2036 msl 89 kts
Mon, Nov 4, 2019     19:27 19:28 0.01 hrs 0.00 hrs 0.00 nm 24.00 gal 2700.00 gal/hr 0.00 gal/nm 0 msl 0 kts
Mon, Nov 4, 2019 KPDK KPDK 15:37 16:28 0.84 hrs 0.49 hrs 67.98 nm 6.70 gal 8.03 gal/hr 0.10 gal/nm 3512 msl 136 kts
Mon, Nov 4, 2019     15:29 15:30 0.01 hrs 0.00 hrs 0.00 nm 0.16 gal 18.00 gal/hr 0.00 gal/nm 0 msl 0 kts
Mon, Nov 4, 2019 KPDK KPDK 13:02 14:06 1.04 hrs 0.50 hrs 48.56 nm 6.43 gal 6.17 gal/hr 0.13 gal/nm 2241 msl 96 kts
Mon, Nov 4, 2019 KPDK KPDK 12:33 12:51 0.29 hrs 0.00 hrs 0.00 nm 0.46 gal 1.57 gal/hr 0.00 gal/nm 0 msl 0 kts
Sun, Nov 3, 2019 KPDK KPDK 17:38 18:35 0.94 hrs 0.47 hrs 62.36 nm 6.57 gal 7.00 gal/hr 0.11 gal/nm 3716 msl 132 kts
Sat, Nov 2, 2019 46A KPDK 16:08 16:45 0.62 hrs 0.44 hrs 65.38 nm 6.53 gal 10.61 gal/hr 0.10 gal/nm 5577 msl 147 kts
Sat, Nov 2, 2019 KPDK 46A 13:31 15:01 1.48 hrs 1.00 hrs 125.89 nm 14.80 gal 10.01 gal/hr 0.12 gal/nm 6559 msl 124 kts
Sat, Nov 2, 2019 KPDK KPDK 13:13 13:15 0.03 hrs 0.00 hrs 0.00 nm 0.64 gal 22.15 gal/hr 0.00 gal/nm 0 msl 0 kts
Sat, Nov 2, 2019 KPDK KPDK 09:03 12:27 3.36 hrs 2.45 hrs 325.76 nm 30.51 gal 9.09 gal/hr 0.09 gal/nm 5701 msl 131 kts
Sat, Nov 2, 2019     08:50 08:50 0.01 hrs 0.00 hrs 0.00 nm 0.00 gal 0.00 gal/hr 0.00 gal/nm 0 msl 0 kts
Fri, Nov 1, 2019 KPDK KPDK 14:28 17:27 2.93 hrs 2.29 hrs 297.80 nm 24.24 gal 8.26 gal/hr 0.08 gal/nm 5515 msl 128 kts
Fri, Nov 1, 2019     14:18 14:19 0.01 hrs 0.00 hrs 0.00 nm 0.09 gal 9.82 gal/hr 0.00 gal/nm 0 msl 0 kts
Fri, Nov 1, 2019 KAHN KPDK 13:12 14:00 0.79 hrs 0.41 hrs 53.59 nm 6.66 gal 8.41 gal/hr 0.12 gal/nm 4519 msl 128 kts
Fri, Nov 1, 2019 KPDK KAHN 10:19 12:06 1.76 hrs 1.16 hrs 156.86 nm 17.20 gal 9.80 gal/hr 0.11 gal/nm 5514 msl 133 kts
Fri, Nov 1, 2019 KPDK KPDK 09:40 09:42 0.04 hrs 0.00 hrs 0.00 nm 9.71 gal 273.09 gal/hr 0.00 gal/nm 0 msl 0 kts
Tue, Oct 29, 2019 KPDK KPDK 12:24 14:36 2.17 hrs 1.78 hrs 198.35 nm 21.10 gal 9.73 gal/hr 0.11 gal/nm 3456 msl 109 kts
Tue, Oct 29, 2019     12:14 12:15 0.02 hrs 0.00 hrs 0.00 nm 10.35 gal 532.29 gal/hr 0.00 gal/nm 0 msl 0 kts
Tue, Oct 29, 2019     09:04 09:05 0.01 hrs 0.00 hrs 0.00 nm 0.16 gal 13.09 gal/hr 0.00 gal/nm 0 msl 0 kts
Tue, Oct 29, 2019     09:01 09:01 0.01 hrs 0.00 hrs 0.00 nm 0.10 gal 17.14 gal/hr 0.00 gal/nm 0 msl 0 kts
Mon, Oct 28, 2019 KPDK KPDK 17:16 19:13 1.92 hrs 1.15 hrs 128.83 nm 15.84 gal 8.24 gal/hr 0.12 gal/nm 3702 msl 110 kts
Mon, Oct 28, 2019 KPDK KPDK 16:54 16:55 0.03 hrs 0.00 hrs 0.00 nm 0.09 gal 3.56 gal/hr 0.00 gal/nm 0 msl 0 kts
Mon, Oct 28, 2019     14:24 14:24 0 hrs 0.00 hrs 0.00 nm 0.05 gal 30.00 gal/hr 0.00 gal/nm 0 msl 0 kts
Mon, Oct 28, 2019 KPDK KPDK 12:31 14:15 1.71 hrs 0.99 hrs 126.17 nm 13.92 gal 8.15 gal/hr 0.11 gal/nm 5627 msl 126 kts
Mon, Oct 28, 2019 KPDK KPDK 12:06 12:11 0.07 hrs 0.00 hrs 0.00 nm 0.97 gal 13.43 gal/hr 0.00 gal/nm 0 msl 0 kts
Sun, Oct 27, 2019 KAHN KPDK 15:50 16:30 0.65 hrs 0.40 hrs 51.05 nm 5.75 gal 8.92 gal/hr 0.11 gal/nm 4521 msl 126 kts
Sun, Oct 27, 2019 KPDK KAHN 13:49 14:37 0.79 hrs 0.38 hrs 52.98 nm 5.87 gal 7.41 gal/hr 0.11 gal/nm 5516 msl 137 kts
Sun, Oct 27, 2019 KPDK KPDK 13:31 13:32 0.02 hrs 0.00 hrs 0.00 nm 13.87 gal 624.15 gal/hr 0.00 gal/nm 0 msl 0 kts
Fri, Oct 25, 2019     12:45 12:45 0.01 hrs 0.00 hrs 0.00 nm 0.00 gal 0.02 gal/hr 0.00 gal/nm 0 msl 0 kts
Fri, Oct 25, 2019     12:16 12:16 0 hrs 0.00 hrs 0.00 nm 0.01 gal 7.20 gal/hr 0.00 gal/nm 0 msl 0 kts
Fri, Oct 25, 2019 KRYY KPDK 11:47 12:09 0.36 hrs 0.19 hrs 22.29 nm 3.12 gal 8.62 gal/hr 0.14 gal/nm 2300 msl 114 kts
Fri, Oct 25, 2019     11:33 11:34 0.01 hrs 0.00 hrs 0.00 nm 0.02 gal 2.18 gal/hr 0.00 gal/nm 0 msl 0 kts
Thu, Oct 24, 2019 KRYY KRYY 12:42 12:49 0.11 hrs 0.00 hrs 0.00 nm 0.32 gal 2.85 gal/hr 0.00 gal/nm 0 msl 0 kts
Thu, Oct 24, 2019     10:54 10:56 0.04 hrs 0.00 hrs 0.00 nm 0.36 gal 10.29 gal/hr 0.00 gal/nm 0 msl 0 kts
Thu, Oct 24, 2019 KRYY KRYY 10:34 10:41 0.12 hrs 0.00 hrs 0.00 nm 0.37 gal 3.07 gal/hr 0.00 gal/nm 0 msl 0 kts
Wed, Oct 23, 2019     09:36 09:36 0 hrs 0.00 hrs 0.00 nm 0.00 gal 0.00 gal/hr 0.00 gal/nm 0 msl 0 kts
Tue, Oct 22, 2019     14:10 14:11 0.02 hrs 0.00 hrs 0.00 nm 18.15 gal 1210.00 gal/hr 0.00 gal/nm 0 msl 0 kts
Tue, Oct 22, 2019 KRYY KRYY 12:56 13:22 0.43 hrs 0.00 hrs 0.00 nm 1.43 gal 3.36 gal/hr 0.00 gal/nm 0 msl 0 kts
Tue, Oct 22, 2019 KPDK KRYY 11:29 11:55 0.43 hrs 0.18 hrs 20.32 nm 3.29 gal 7.67 gal/hr 0.16 gal/nm 3383 msl 111 kts
Tue, Oct 22, 2019     11:18 11:18 0.01 hrs 0.00 hrs 0.00 nm 0.00 gal 0.00 gal/hr 0.00 gal/nm 0 msl 0 kts
Sun, Oct 20, 2019     17:07 17:07 0 hrs 0.00 hrs 0.00 nm 0.00 gal 0.00 gal/hr 0.00 gal/nm 0 msl 0 kts
Sun, Oct 20, 2019 KNEW KPDK 14:05 17:03 2.92 hrs 2.52 hrs 391.75 nm 31.62 gal 10.82 gal/hr 0.08 gal/nm 9013 msl 153 kts
Sun, Oct 20, 2019 KNEW KNEW 13:55 13:57 0.05 hrs 0.00 hrs 0.00 nm 0.00 gal 0.00 gal/hr 0.00 gal/nm 0 msl 0 kts
Thu, Oct 17, 2019 KPDK KNEW 07:58 11:06 3.08 hrs 2.73 hrs 393.61 nm 35.81 gal 11.63 gal/hr 0.09 gal/nm 4075 msl 142 kts
Thu, Oct 17, 2019     07:25 07:25 0.01 hrs 0.00 hrs 0.00 nm 0.01 gal 1.09 gal/hr 0.00 gal/nm 0 msl 0 kts
Tue, Oct 15, 2019     08:21 08:21 0 hrs 0.00 hrs 0.00 nm 0.00 gal 0.00 gal/hr 0.00 gal/nm 0 msl 0 kts
Tue, Oct 15, 2019 KPDK KPDK 08:19 08:21 0.02 hrs 0.00 hrs 0.00 nm 0.00 gal 0.00 gal/hr 0.00 gal/nm 0 msl 0 kts
Mon, Oct 14, 2019 FD13 KPDK 19:58 21:51 1.86 hrs 1.55 hrs 230.65 nm 22.95 gal 12.32 gal/hr 0.10 gal/nm 6517 msl 146 kts
Mon, Oct 14, 2019     19:55 19:56 0.01 hrs 0.00 hrs 0.00 nm 0.00 gal 0.00 gal/hr 0.00 gal/nm 0 msl 0 kts
Mon, Oct 14, 2019 KPDK FD13 07:51 09:51 1.96 hrs 1.58 hrs 226.99 nm 22.68 gal 11.58 gal/hr 0.10 gal/nm 8506 msl 141 kts
Mon, Oct 14, 2019     07:40 07:40 0.01 hrs 0.00 hrs 0.00 nm 0.02 gal 1.60 gal/hr 0.00 gal/nm 0 msl 0 kts
Mon, Oct 14, 2019     07:38 07:38 0 hrs 0.00 hrs 0.00 nm 0.03 gal 12.00 gal/hr 0.00 gal/nm 0 msl 0 kts
Sat, Oct 12, 2019 KPDK KPDK 19:27 21:06 1.62 hrs 1.25 hrs 153.33 nm 15.97 gal 9.83 gal/hr 0.10 gal/nm 5736 msl 121 kts
Sat, Oct 12, 2019     19:13 19:14 0.01 hrs 0.00 hrs 0.00 nm 0.11 gal 9.00 gal/hr 0.00 gal/nm 0 msl 0 kts
Sat, Oct 12, 2019 KPDK KPDK 13:34 15:29 1.89 hrs 1.19 hrs 139.30 nm 16.79 gal 8.89 gal/hr 0.12 gal/nm 4846 msl 115 kts
Sat, Oct 12, 2019     13:24 13:25 0.01 hrs 0.00 hrs 0.00 nm 0.09 gal 10.12 gal/hr 0.00 gal/nm 0 msl 0 kts
Sat, Oct 12, 2019 KPDK KPDK 13:16 13:18 0.04 hrs 0.00 hrs 0.00 nm 0.00 gal 0.00 gal/hr 0.00 gal/nm 0 msl 0 kts
Sat, Oct 12, 2019 KPDK KPDK 13:14 13:16 0.03 hrs 0.00 hrs 0.00 nm 0.00 gal 0.00 gal/hr 0.00 gal/nm 0 msl 0 kts
Sat, Oct 12, 2019     13:12 13:13 0.01 hrs 0.00 hrs 0.00 nm 0.00 gal 0.00 gal/hr 0.00 gal/nm 0 msl 0 kts
Sat, Oct 12, 2019 KPDK KPDK 09:24 11:30 2.08 hrs 1.39 hrs 171.66 nm 18.76 gal 9.04 gal/hr 0.11 gal/nm 5884 msl 121 kts
Sat, Oct 12, 2019 KPDK KPDK 09:08 09:11 0.04 hrs 0.00 hrs 0.00 nm 24.86 gal 639.26 gal/hr 0.00 gal/nm 0 msl 0 kts
Wed, Oct 9, 2019 KGKT KPDK 15:16 16:45 1.47 hrs 1.04 hrs 147.43 nm 13.85 gal 9.45 gal/hr 0.09 gal/nm 10050 msl 140 kts
Wed, Oct 9, 2019 KPDK KGKT 09:14 10:39 1.41 hrs 0.98 hrs 142.20 nm 13.14 gal 9.35 gal/hr 0.09 gal/nm 9096 msl 143 kts
Wed, Oct 9, 2019 KPDK KPDK 09:06 09:08 0.02 hrs 0.00 hrs 0.00 nm 0.00 gal 0.00 gal/hr 0.00 gal/nm 0 msl 0 kts
Tue, Oct 8, 2019     19:30 19:31 0.01 hrs 0.00 hrs 0.00 nm 0.01 gal 1.12 gal/hr 0.00 gal/nm 0 msl 0 kts
Tue, Oct 8, 2019 KPDK KPDK 17:42 19:22 1.64 hrs 1.06 hrs 118.57 nm 13.41 gal 8.19 gal/hr 0.11 gal/nm 4837 msl 110 kts
Tue, Oct 8, 2019 KPDK KPDK 17:19 17:20 0.01 hrs 0.00 hrs 0.00 nm 0.04 gal 4.50 gal/hr 0.00 gal/nm 0 msl 0 kts
Tue, Oct 8, 2019     17:11 17:12 0.01 hrs 0.00 hrs 0.00 nm 0.11 gal 13.20 gal/hr 0.00 gal/nm 0 msl 0 kts
Tue, Oct 8, 2019 KPDK KPDK 14:33 15:55 1.34 hrs 0.79 hrs 75.91 nm 10.37 gal 7.72 gal/hr 0.14 gal/nm 2102 msl 94 kts
Tue, Oct 8, 2019 KPDK KPDK 14:30 14:33 0.05 hrs 0.00 hrs 0.00 nm 0.08 gal 1.81 gal/hr 0.00 gal/nm 0 msl 0 kts
Tue, Oct 8, 2019     14:15 14:15 0.01 hrs 0.00 hrs 0.00 nm 0.00 gal 0.00 gal/hr 0.00 gal/nm 0 msl 0 kts
Tue, Oct 8, 2019 KPDK KPDK 11:49 11:50 0.02 hrs 0.00 hrs 0.00 nm 0.05 gal 3.21 gal/hr 0.00 gal/nm 0 msl 0 kts
Tue, Oct 8, 2019 KPDK KPDK 11:47 11:49 0.03 hrs 0.00 hrs 0.00 nm 0.62 gal 24.80 gal/hr 0.00 gal/nm 0 msl 0 kts
Tue, Oct 8, 2019 KPDK KPDK 10:27 10:28 0.02 hrs 0.00 hrs 0.00 nm 2.08 gal 129.10 gal/hr 0.00 gal/nm 0 msl 0 kts
Tue, Oct 8, 2019 KPDK KPDK 10:20 10:26 0.1 hrs 0.00 hrs 0.00 nm 0.06 gal 0.62 gal/hr 0.00 gal/nm 0 msl 0 kts
Mon, Oct 7, 2019 KPDK KPDK 17:35 19:43 2.1 hrs 1.64 hrs 221.01 nm 21.20 gal 10.10 gal/hr 0.10 gal/nm 7570 msl 133 kts
Mon, Oct 7, 2019 KPDK KPDK 16:46 16:48 0.03 hrs 0.00 hrs 0.00 nm 9.20 gal 318.46 gal/hr 0.00 gal/nm 0 msl 0 kts
Mon, Oct 7, 2019 KPDK KPDK 15:05 15:09 0.06 hrs 0.00 hrs 0.00 nm 0.13 gal 2.11 gal/hr 0.00 gal/nm 0 msl 0 kts
Mon, Oct 7, 2019 KPDK KPDK 12:08 14:12 2.02 hrs 1.11 hrs 140.80 nm 16.19 gal 8.00 gal/hr 0.11 gal/nm 5030 msl 125 kts
Mon, Oct 7, 2019 KPDK KPDK 09:42 11:12 1.48 hrs 0.00 hrs 0.00 nm 0.31 gal 0.21 gal/hr 0.00 gal/nm 0 msl 0 kts
Sun, Oct 6, 2019 KPDK KPDK 14:31 15:13 0.68 hrs 0.32 hrs 39.91 nm 5.10 gal 7.52 gal/hr 0.13 gal/nm 3149 msl 122 kts
Sun, Oct 6, 2019 KPDK KPDK 14:16 14:19 0.05 hrs 0.00 hrs 0.00 nm 0.50 gal 10.98 gal/hr 0.00 gal/nm 0 msl 0 kts
Sat, Oct 5, 2019 KDKX KPDK 23:19 00:36 1.26 hrs 1.02 hrs 133.66 nm 13.91 gal 11.03 gal/hr 0.10 gal/nm 8064 msl 129 kts
Sat, Oct 5, 2019 KPDK KDKX 17:06 18:24 1.28 hrs 0.88 hrs 134.38 nm 13.66 gal 10.66 gal/hr 0.10 gal/nm 8017 msl 150 kts
Sat, Oct 5, 2019 KPDK KPDK 16:32 16:36 0.07 hrs 0.00 hrs 0.00 nm 0.00 gal 0.00 gal/hr 0.00 gal/nm 0 msl 0 kts
Sat, Oct 5, 2019 KPDK KPDK 12:26 13:35 1.13 hrs 0.00 hrs 0.00 nm 0.00 gal 0.00 gal/hr 0.00 gal/nm 0 msl 0 kts
Sat, Oct 5, 2019     12:15 12:16 0.01 hrs 0.00 hrs 0.00 nm 0.00 gal 0.00 gal/hr 0.00 gal/nm 0 msl 0 kts
Sat, Oct 5, 2019 KPDK KPDK 11:44 11:47 0.04 hrs 0.00 hrs 0.00 nm 0.00 gal 0.05 gal/hr 0.00 gal/nm 0 msl 0 kts
Sat, Oct 5, 2019 KPDK KPDK 10:11 11:27 1.25 hrs 0.87 hrs 105.08 nm 11.74 gal 9.38 gal/hr 0.11 gal/nm 7313 msl 119 kts
Sat, Oct 5, 2019 KPDK KPDK 09:14 09:17 0.05 hrs 0.00 hrs 0.00 nm 15.59 gal 342.22 gal/hr 0.00 gal/nm 0 msl 0 kts
Sat, Oct 5, 2019     08:52 08:52 0 hrs 0.00 hrs 0.00 nm 0.03 gal 18.00 gal/hr 0.00 gal/nm 0 msl 0 kts
Sat, Oct 5, 2019     08:50 08:50 0 hrs 0.00 hrs 0.00 nm 0.01 gal 6.00 gal/hr 0.00 gal/nm 0 msl 0 kts
Sat, Oct 5, 2019     08:47 08:47 0 hrs 0.00 hrs 0.00 nm 0.02 gal 12.00 gal/hr 0.00 gal/nm 0 msl 0 kts
Sat, Oct 5, 2019     08:45 08:46 0.01 hrs 0.00 hrs 0.00 nm 0.07 gal 6.00 gal/hr 0.00 gal/nm 0 msl 0 kts
Fri, Oct 4, 2019 KPDK KPDK 16:58 18:50 1.83 hrs 1.30 hrs 153.99 nm 17.76 gal 9.70 gal/hr 0.12 gal/nm 5668 msl 117 kts
Fri, Oct 4, 2019 KPDK KPDK 16:42 16:44 0.04 hrs 0.00 hrs 0.00 nm 0.03 gal 0.77 gal/hr 0.00 gal/nm 0 msl 0 kts
Fri, Oct 4, 2019     16:34 16:34 0 hrs 0.00 hrs 0.00 nm 0.02 gal 12.00 gal/hr 0.00 gal/nm 0 msl 0 kts
Fri, Oct 4, 2019 9A1 KPDK 15:18 15:53 0.56 hrs 0.29 hrs 32.04 nm 4.33 gal 7.71 gal/hr 0.14 gal/nm 3060 msl 110 kts
Fri, Oct 4, 2019 9A1 9A1 13:12 14:33 1.32 hrs 0.97 hrs 113.83 nm 13.77 gal 10.42 gal/hr 0.12 gal/nm 5530 msl 116 kts
Fri, Oct 4, 2019 9A1 9A1 12:59 13:01 0.03 hrs 0.00 hrs 0.00 nm 3.15 gal 106.98 gal/hr 0.00 gal/nm 0 msl 0 kts
Fri, Oct 4, 2019 KFFC 9A1 07:44 08:31 0.76 hrs 0.41 hrs 50.76 nm 5.65 gal 7.45 gal/hr 0.11 gal/nm 2416 msl 122 kts
Fri, Oct 4, 2019 KFFC KFFC 07:27 07:29 0.05 hrs 0.00 hrs 0.00 nm 0.42 gal 9.28 gal/hr 0.00 gal/nm 0 msl 0 kts
Thu, Oct 3, 2019 9A1 KFFC 13:21 13:59 0.63 hrs 0.46 hrs 54.68 nm 6.66 gal 10.60 gal/hr 0.12 gal/nm 3752 msl 118 kts
Thu, Oct 3, 2019 9A1 9A1 11:08 12:53 1.73 hrs 1.33 hrs 172.45 nm 17.79 gal 10.31 gal/hr 0.10 gal/nm 5515 msl 128 kts
Thu, Oct 3, 2019 KFFC 9A1 09:27 10:58 1.49 hrs 1.20 hrs 140.63 nm 15.99 gal 10.75 gal/hr 0.11 gal/nm 6321 msl 116 kts
Thu, Oct 3, 2019 KFFC KFFC 09:10 09:13 0.03 hrs 0.00 hrs 0.00 nm 0.14 gal 4.03 gal/hr 0.00 gal/nm 0 msl 0 kts
Wed, Oct 2, 2019 9A1 KFFC 17:12 17:56 0.73 hrs 0.52 hrs 62.57 nm 7.36 gal 10.15 gal/hr 0.12 gal/nm 4527 msl 118 kts
Wed, Oct 2, 2019 9A1 9A1 15:21 16:57 1.56 hrs 1.13 hrs 131.58 nm 15.24 gal 9.76 gal/hr 0.12 gal/nm 5599 msl 114 kts
Wed, Oct 2, 2019 KFFC 9A1 11:45 14:13 2.43 hrs 1.84 hrs 223.20 nm 24.20 gal 9.98 gal/hr 0.11 gal/nm 5836 msl 119 kts
Wed, Oct 2, 2019 KFFC KFFC 11:30 11:33 0.04 hrs 0.00 hrs 0.00 nm 0.16 gal 3.84 gal/hr 0.00 gal/nm 0 msl 0 kts
Tue, Oct 1, 2019 KFFC KFFC 19:54 23:06 3.14 hrs 2.43 hrs 301.44 nm 32.51 gal 10.36 gal/hr 0.11 gal/nm 6513 msl 122 kts
Tue, Oct 1, 2019 KPDK KFFC 16:20 18:20 1.97 hrs 1.55 hrs 178.97 nm 19.71 gal 10.03 gal/hr 0.11 gal/nm 3534 msl 114 kts
Tue, Oct 1, 2019     15:50 15:50 0 hrs 0.00 hrs 0.00 nm 0.00 gal 0.00 gal/hr 0.00 gal/nm 0 msl 0 kts
Tue, Oct 1, 2019     15:49 15:50 0.02 hrs 0.00 hrs 0.00 nm 0.07 gal 4.34 gal/hr 0.00 gal/nm 0 msl 0 kts
Tue, Oct 1, 2019 KPDK KPDK 12:55 12:57 0.05 hrs 0.00 hrs 0.00 nm 0.09 gal 1.74 gal/hr 0.00 gal/nm 0 msl 0 kts
Mon, Sep 30, 2019 KPDK KPDK 09:56 09:59 0.05 hrs 0.00 hrs 0.00 nm 0.14 gal 2.74 gal/hr 0.00 gal/nm 0 msl 0 kts
Mon, Sep 30, 2019 KFFC KPDK 09:14 09:48 0.56 hrs 0.33 hrs 42.36 nm 4.83 gal 8.64 gal/hr 0.11 gal/nm 4513 msl 125 kts
Mon, Sep 30, 2019     09:11 09:11 0.01 hrs 0.00 hrs 0.00 nm 0.32 gal 34.91 gal/hr 0.00 gal/nm 0 msl 0 kts
Sun, Sep 29, 2019 KFFC KFFC 20:09 20:11 0.03 hrs 0.00 hrs 0.00 nm 0.06 gal 1.92 gal/hr 0.00 gal/nm 0 msl 0 kts
Sun, Sep 29, 2019 KFFC KFFC 20:03 20:07 0.07 hrs 0.00 hrs 0.00 nm 0.00 gal 0.00 gal/hr 0.00 gal/nm 0 msl 0 kts
Sun, Sep 29, 2019 KFFC KFFC 19:57 20:00 0.05 hrs 0.00 hrs 0.00 nm 0.08 gal 1.63 gal/hr 0.00 gal/nm 0 msl 0 kts
Sun, Sep 29, 2019 KFFC KFFC 19:43 19:47 0.07 hrs 0.00 hrs 0.00 nm 0.00 gal 0.00 gal/hr 0.00 gal/nm 0 msl 0 kts
Sat, Sep 28, 2019 KFFC KFFC 15:11 16:55 1.71 hrs 1.48 hrs 160.50 nm 19.19 gal 11.19 gal/hr 0.12 gal/nm 4533 msl 106 kts
Sat, Sep 28, 2019 KFFC KFFC 12:54 13:33 0.64 hrs 0.38 hrs 44.68 nm 5.61 gal 8.74 gal/hr 0.13 gal/nm 3655 msl 115 kts
Sat, Sep 28, 2019 KFFC KFFC 11:29 12:12 0.71 hrs 0.43 hrs 54.28 nm 6.01 gal 8.48 gal/hr 0.11 gal/nm 2526 msl 125 kts
Sat, Sep 28, 2019 KFFC KFFC 09:46 11:09 1.37 hrs 1.06 hrs 125.48 nm 14.39 gal 10.54 gal/hr 0.11 gal/nm 4642 msl 117 kts
Sat, Sep 28, 2019     09:31 09:31 0.01 hrs 0.00 hrs 0.00 nm 0.01 gal 1.80 gal/hr 0.00 gal/nm 0 msl 0 kts
Fri, Sep 27, 2019 KFFC KFFC 15:19 16:41 1.35 hrs 1.06 hrs 116.23 nm 13.80 gal 10.19 gal/hr 0.12 gal/nm 3581 msl 108 kts
Fri, Sep 27, 2019 KFFC KFFC 12:13 13:51 1.62 hrs 1.29 hrs 147.46 nm 16.53 gal 10.23 gal/hr 0.11 gal/nm 3665 msl 113 kts
Fri, Sep 27, 2019 KFFC KFFC 10:18 11:52 1.54 hrs 1.09 hrs 115.79 nm 13.79 gal 8.94 gal/hr 0.12 gal/nm 3575 msl 104 kts
Fri, Sep 27, 2019 KFFC KFFC 10:01 10:04 0.04 hrs 0.00 hrs 0.00 nm 0.23 gal 5.91 gal/hr 0.00 gal/nm 0 msl 0 kts
Thu, Sep 26, 2019 KHQU KFFC 14:10 15:19 1.13 hrs 0.86 hrs 114.35 nm 11.79 gal 10.42 gal/hr 0.10 gal/nm 4578 msl 132 kts
Thu, Sep 26, 2019 KHQU KHQU 13:52 13:57 0.08 hrs 0.00 hrs 0.00 nm 0.08 gal 0.98 gal/hr 0.00 gal/nm 0 msl 0 kts
Thu, Sep 26, 2019 KFFC KHQU 11:44 13:21 1.59 hrs 1.03 hrs 144.91 nm 15.42 gal 9.71 gal/hr 0.11 gal/nm 5569 msl 138 kts
Thu, Sep 26, 2019     11:30 11:31 0.01 hrs 0.00 hrs 0.00 nm 0.05 gal 4.29 gal/hr 0.00 gal/nm 0 msl 0 kts
Thu, Sep 26, 2019 KFFC KFFC 11:24 11:29 0.07 hrs 0.00 hrs 0.00 nm 0.26 gal 3.60 gal/hr 0.00 gal/nm 0 msl 0 kts
Wed, Sep 25, 2019 KFFC KFFC 16:26 17:40 1.23 hrs 0.94 hrs 129.40 nm 13.48 gal 11.00 gal/hr 0.10 gal/nm 4659 msl 136 kts
Wed, Sep 25, 2019 KRYY KFFC 14:47 15:58 1.16 hrs 0.76 hrs 102.16 nm 9.67 gal 8.32 gal/hr 0.09 gal/nm 3096 msl 132 kts
Wed, Sep 25, 2019 KRYY KRYY 12:19 13:35 1.23 hrs 0.51 hrs 47.46 nm 7.78 gal 6.32 gal/hr 0.16 gal/nm 2165 msl 91 kts
Wed, Sep 25, 2019     11:28 11:29 0.01 hrs 0.00 hrs 0.00 nm 1.05 gal 90.00 gal/hr 0.00 gal/nm 0 msl 0 kts
Wed, Sep 25, 2019 KRYY KRYY 10:57 11:00 0.05 hrs 0.00 hrs 0.01 nm 0.10 gal 1.84 gal/hr 9.53 gal/nm 985 msl 37 kts
Wed, Sep 25, 2019 KRYY KRYY 09:13 09:20 0.11 hrs 0.00 hrs 0.00 nm 0.44 gal 4.08 gal/hr 0.00 gal/nm 0 msl 0 kts
Wed, Sep 25, 2019     08:51 08:52 0.01 hrs 0.00 hrs 0.00 nm 0.03 gal 3.60 gal/hr 0.00 gal/nm 0 msl 0 kts
Wed, Sep 25, 2019     07:12 07:12 0.01 hrs 0.00 hrs 0.00 nm 0.09 gal 18.00 gal/hr 0.00 gal/nm 0 msl 0 kts
Wed, Sep 25, 2019 KPDK KRYY 06:41 07:09 0.46 hrs 0.17 hrs 19.56 nm 3.02 gal 6.62 gal/hr 0.15 gal/nm 3590 msl 112 kts
Wed, Sep 25, 2019     06:35 06:35 0.01 hrs 0.00 hrs 0.00 nm 0.02 gal 1.60 gal/hr 0.00 gal/nm 0 msl 0 kts
Tue, Sep 24, 2019 KAHN KPDK 12:39 13:41 1.02 hrs 0.65 hrs 77.47 nm 9.65 gal 9.44 gal/hr 0.12 gal/nm 4534 msl 117 kts
Tue, Sep 24, 2019 KPDK KAHN 10:41 11:59 1.28 hrs 0.68 hrs 79.64 nm 10.79 gal 8.44 gal/hr 0.14 gal/nm 5518 msl 116 kts
Tue, Sep 24, 2019 KPDK KPDK 10:38 10:40 0.04 hrs 0.00 hrs 0.00 nm 0.04 gal 1.03 gal/hr 0.00 gal/nm 0 msl 0 kts
Tue, Sep 24, 2019 KPDK KPDK 10:24 10:26 0.03 hrs 0.00 hrs 0.00 nm 0.00 gal 0.00 gal/hr 0.00 gal/nm 0 msl 0 kts
Mon, Sep 23, 2019 KPDK KPDK 15:15 16:57 1.67 hrs 1.30 hrs 146.22 nm 16.23 gal 9.69 gal/hr 0.11 gal/nm 4499 msl 111 kts
Mon, Sep 23, 2019     15:07 15:07 0.02 hrs 0.00 hrs 0.00 nm 4.59 gal 280.07 gal/hr 0.00 gal/nm 0 msl 0 kts
Mon, Sep 23, 2019     07:49 07:50 0.02 hrs 0.00 hrs 0.00 nm 0.07 gal 3.19 gal/hr 0.00 gal/nm 0 msl 0 kts
Mon, Sep 23, 2019     07:48 07:48 0.01 hrs 0.00 hrs 0.00 nm 0.01 gal 1.16 gal/hr 0.00 gal/nm 0 msl 0 kts
Mon, Sep 23, 2019     07:46 07:47 0.01 hrs 0.00 hrs 0.00 nm 0.02 gal 1.64 gal/hr 0.00 gal/nm 0 msl 0 kts
Fri, Sep 20, 2019 KPDK KPDK 13:25 14:48 1.35 hrs 1.02 hrs 130.07 nm 14.17 gal 10.46 gal/hr 0.11 gal/nm 4520 msl 126 kts
Fri, Sep 20, 2019 KPDK KPDK 13:11 13:12 0.01 hrs 0.00 hrs 0.00 nm 0.04 gal 4.50 gal/hr 0.00 gal/nm 0 msl 0 kts
Thu, Sep 19, 2019 KMBT KPDK 16:41 18:10 1.45 hrs 1.22 hrs 169.01 nm 15.04 gal 10.36 gal/hr 0.09 gal/nm 5060 msl 136 kts
Wed, Sep 18, 2019 KHSV KMBT 15:43 16:36 0.87 hrs 0.62 hrs 78.51 nm 7.62 gal 8.77 gal/hr 0.10 gal/nm 5036 msl 125 kts
Wed, Sep 18, 2019 KMBT KHSV 10:55 11:40 0.73 hrs 0.57 hrs 80.10 nm 6.96 gal 9.51 gal/hr 0.09 gal/nm 3514 msl 138 kts
Tue, Sep 17, 2019 KHSV KMBT 08:41 09:37 0.93 hrs 0.71 hrs 97.76 nm 9.07 gal 9.77 gal/hr 0.09 gal/nm 5020 msl 136 kts
Mon, Sep 16, 2019 KPDK KHSV 07:44 08:56 1.19 hrs 0.98 hrs 139.63 nm 11.70 gal 9.84 gal/hr 0.08 gal/nm 5017 msl 140 kts
Mon, Sep 16, 2019     06:48 06:49 0.02 hrs 0.00 hrs 0.00 nm 0.28 gal 14.61 gal/hr 0.00 gal/nm 0 msl 0 kts
Sun, Sep 15, 2019 KCUB KPDK 10:19 11:43 1.39 hrs 1.11 hrs 171.67 nm 15.47 gal 11.16 gal/hr 0.09 gal/nm 4818 msl 153 kts
Sun, Sep 15, 2019 KPDK KCUB 08:32 10:00 1.44 hrs 1.24 hrs 166.24 nm 16.40 gal 11.37 gal/hr 0.10 gal/nm 5511 msl 132 kts
Sun, Sep 15, 2019 KPDK KPDK 08:17 08:19 0.03 hrs 0.00 hrs 0.00 nm 0.04 gal 1.38 gal/hr 0.00 gal/nm 0 msl 0 kts
Sat, Sep 14, 2019 KPDK KPDK 14:55 15:02 0.11 hrs 0.00 hrs 0.00 nm 0.09 gal 0.86 gal/hr 0.00 gal/nm 0 msl 0 kts
Fri, Sep 13, 2019 KPDK KPDK 08:48 08:50 0.03 hrs 0.00 hrs 0.00 nm 0.06 gal 2.27 gal/hr 0.00 gal/nm 0 msl 0 kts
Fri, Sep 13, 2019 KPDK KPDK 08:45 08:48 0.04 hrs 0.00 hrs 0.00 nm 0.09 gal 2.30 gal/hr 0.00 gal/nm 0 msl 0 kts
Fri, Sep 13, 2019     08:43 08:43 0.01 hrs 0.00 hrs 0.00 nm 0.14 gal 24.00 gal/hr 0.00 gal/nm 0 msl 0 kts
Fri, Sep 13, 2019     08:32 08:32 0 hrs 0.00 hrs 0.00 nm 0.03 gal 18.00 gal/hr 0.00 gal/nm 0 msl 0 kts
Thu, Sep 12, 2019 KHSV KPDK 16:26 17:44 1.28 hrs 1.03 hrs 148.96 nm 12.62 gal 9.82 gal/hr 0.08 gal/nm 5029 msl 142 kts
Mon, Sep 9, 2019 KPDK KHSV 07:18 08:36 1.28 hrs 0.96 hrs 140.30 nm 12.02 gal 9.38 gal/hr 0.09 gal/nm 4012 msl 144 kts
Sun, Sep 8, 2019 KSCD KPDK 15:41 16:52 1.17 hrs 0.99 hrs 140.04 nm 13.56 gal 11.64 gal/hr 0.10 gal/nm 7014 msl 139 kts
Sun, Sep 8, 2019 KSCD KSCD 15:26 15:40 0.23 hrs 0.00 hrs 0.00 nm 0.64 gal 2.74 gal/hr 0.00 gal/nm 0 msl 0 kts
Fri, Sep 6, 2019 KPDK KSCD 16:58 18:24 1.41 hrs 0.88 hrs 130.36 nm 12.79 gal 9.08 gal/hr 0.10 gal/nm 8077 msl 147 kts
Fri, Sep 6, 2019 KPDK KPDK 16:50 16:52 0.03 hrs 0.00 hrs 0.00 nm 0.39 gal 15.26 gal/hr 0.00 gal/nm 0 msl 0 kts
Fri, Sep 6, 2019 KPDK KPDK 12:47 13:31 0.71 hrs 0.33 hrs 33.92 nm 4.92 gal 6.91 gal/hr 0.15 gal/nm 2344 msl 100 kts
Fri, Sep 6, 2019 KPDK KPDK 12:33 12:37 0.07 hrs 0.00 hrs 0.00 nm 19.40 gal 267.59 gal/hr 0.00 gal/nm 0 msl 0 kts
Fri, Sep 6, 2019     10:21 10:22 0 hrs 0.00 hrs 0.00 nm 0.02 gal 4.24 gal/hr 0.00 gal/nm 0 msl 0 kts
Thu, Sep 5, 2019 KAHN KPDK 13:47 14:31 0.72 hrs 0.43 hrs 53.70 nm 6.69 gal 9.27 gal/hr 0.12 gal/nm 4534 msl 125 kts
Thu, Sep 5, 2019 KPDK KAHN 08:38 10:04 1.41 hrs 0.82 hrs 91.39 nm 11.79 gal 8.37 gal/hr 0.13 gal/nm 3728 msl 109 kts
Thu, Sep 5, 2019     08:25 08:26 0.02 hrs 0.00 hrs 0.00 nm 0.04 gal 2.18 gal/hr 0.00 gal/nm 0 msl 0 kts
Wed, Sep 4, 2019     16:52 16:52 0.01 hrs 0.00 hrs 0.00 nm 0.00 gal 0.34 gal/hr 0.00 gal/nm 0 msl 0 kts
Wed, Sep 4, 2019 KPDK KPDK 14:20 16:38 2.27 hrs 1.79 hrs 224.54 nm 22.89 gal 10.09 gal/hr 0.10 gal/nm 6802 msl 123 kts
Wed, Sep 4, 2019     14:13 14:14 0.02 hrs 0.00 hrs 0.00 nm 0.00 gal 0.00 gal/hr 0.00 gal/nm 0 msl 0 kts
Wed, Sep 4, 2019     13:53 13:53 0 hrs 0.00 hrs 0.00 nm 0.22 gal 132.00 gal/hr 0.00 gal/nm 0 msl 0 kts
Tue, Sep 3, 2019 KPDK KPDK 20:44 22:20 1.58 hrs 0.97 hrs 116.31 nm 13.58 gal 8.58 gal/hr 0.12 gal/nm 3530 msl 118 kts
Tue, Sep 3, 2019     20:13 20:15 0.02 hrs 0.00 hrs 0.00 nm 0.00 gal 0.00 gal/hr 0.00 gal/nm 0 msl 0 kts
Tue, Sep 3, 2019     15:08 15:09 0.02 hrs 0.00 hrs 0.00 nm 0.33 gal 15.23 gal/hr 0.00 gal/nm 0 msl 0 kts
Tue, Sep 3, 2019     15:07 15:07 0.01 hrs 0.00 hrs 0.00 nm 1.71 gal 307.80 gal/hr 0.00 gal/nm 0 msl 0 kts
Tue, Sep 3, 2019 KGMU KPDK 13:45 15:04 1.3 hrs 0.88 hrs 132.50 nm 13.01 gal 10.02 gal/hr 0.10 gal/nm 8017 msl 147 kts
Tue, Sep 3, 2019 KGMU KGMU 13:41 13:42 0.02 hrs 0.00 hrs 0.00 nm 24.33 gal 1094.85 gal/hr 0.00 gal/nm 0 msl 0 kts
Tue, Sep 3, 2019 KPDK KGMU 10:42 12:02 1.32 hrs 0.89 hrs 121.28 nm 13.02 gal 9.90 gal/hr 0.11 gal/nm 9026 msl 134 kts
Tue, Sep 3, 2019     10:33 10:34 0.02 hrs 0.00 hrs 0.00 nm 0.31 gal 19.93 gal/hr 0.00 gal/nm 0 msl 0 kts
Tue, Sep 3, 2019     10:28 10:28 0 hrs 0.00 hrs 0.00 nm 8.26 gal 3717.00 gal/hr 0.00 gal/nm 0 msl 0 kts
Mon, Sep 2, 2019     14:30 14:30 0 hrs 0.00 hrs 0.00 nm 0.03 gal 21.60 gal/hr 0.00 gal/nm 0 msl 0 kts
Mon, Sep 2, 2019     12:11 12:11 0 hrs 0.00 hrs 0.00 nm 0.01 gal 6.00 gal/hr 0.00 gal/nm 0 msl 0 kts
Mon, Sep 2, 2019 KAIK KPDK 10:46 12:08 1.34 hrs 0.97 hrs 142.88 nm 13.40 gal 9.98 gal/hr 0.09 gal/nm 6009 msl 145 kts
Mon, Sep 2, 2019     10:29 10:29 0.02 hrs 0.00 hrs 0.00 nm 0.32 gal 20.95 gal/hr 0.00 gal/nm 0 msl 0 kts
Fri, Aug 30, 2019 KCEU KAIK 12:00 13:06 1.08 hrs 0.70 hrs 92.06 nm 10.39 gal 9.60 gal/hr 0.11 gal/nm 7009 msl 130 kts
Fri, Aug 30, 2019     11:44 11:45 0.02 hrs 0.00 hrs 0.00 nm 0.23 gal 12.55 gal/hr 0.00 gal/nm 0 msl 0 kts
Thu, Aug 29, 2019 KPDK KCEU 12:42 13:42 0.99 hrs 0.73 hrs 100.65 nm 10.49 gal 10.65 gal/hr 0.10 gal/nm 7017 msl 136 kts
Thu, Aug 29, 2019 KPDK KPDK 12:33 12:41 0.14 hrs 0.00 hrs 0.00 nm 0.26 gal 1.95 gal/hr 0.00 gal/nm 0 msl 0 kts
Thu, Aug 29, 2019     12:20 12:22 0.02 hrs 0.00 hrs 0.00 nm 0.10 gal 5.54 gal/hr 0.00 gal/nm 0 msl 0 kts
Thu, Aug 29, 2019 KPDK KPDK 11:02 11:02 0.01 hrs 0.00 hrs 0.00 nm 0.08 gal 12.52 gal/hr 0.00 gal/nm 0 msl 0 kts
Thu, Aug 29, 2019 KPDK KPDK 10:52 11:01 0.15 hrs 0.00 hrs 0.00 nm 0.24 gal 1.64 gal/hr 0.00 gal/nm 0 msl 0 kts
Thu, Aug 29, 2019 KPDK KPDK 09:36 09:38 0.04 hrs 0.00 hrs 0.00 nm 0.07 gal 1.67 gal/hr 0.00 gal/nm 0 msl 0 kts
Wed, Aug 28, 2019 KPDK KPDK 14:53 17:33 2.63 hrs 2.09 hrs 260.03 nm 28.47 gal 10.85 gal/hr 0.11 gal/nm 7511 msl 123 kts
Wed, Aug 28, 2019 KPDK KPDK 14:13 14:14 0.02 hrs 0.00 hrs 0.00 nm 0.32 gal 14.40 gal/hr 0.00 gal/nm 0 msl 0 kts
Wed, Aug 28, 2019 KPDK KPDK 12:10 12:11 0.03 hrs 0.00 hrs 0.00 nm 0.30 gal 9.23 gal/hr 0.00 gal/nm 0 msl 0 kts
Wed, Aug 28, 2019 KPDK KPDK 12:05 12:09 0.07 hrs 0.00 hrs 0.00 nm 13.23 gal 203.54 gal/hr 0.00 gal/nm 0 msl 0 kts
Wed, Aug 28, 2019 KPDK KPDK 10:35 10:37 0.04 hrs 0.00 hrs 0.00 nm 0.00 gal 0.00 gal/hr 0.00 gal/nm 0 msl 0 kts
Tue, Aug 27, 2019 KPDK KPDK 13:27 15:59 2.5 hrs 1.86 hrs 252.94 nm 26.04 gal 10.42 gal/hr 0.10 gal/nm 6023 msl 134 kts
Tue, Aug 27, 2019 KPDK KPDK 13:16 13:17 0.02 hrs 0.00 hrs 0.00 nm 0.21 gal 11.12 gal/hr 0.00 gal/nm 0 msl 0 kts
Mon, Aug 26, 2019     14:27 14:28 0 hrs 0.00 hrs 0.00 nm 0.03 gal 6.35 gal/hr 0.00 gal/nm 0 msl 0 kts
Mon, Aug 26, 2019 KPDK KPDK 13:28 13:36 0.12 hrs 0.00 hrs 0.00 nm 0.36 gal 2.93 gal/hr 0.00 gal/nm 0 msl 0 kts
Mon, Aug 26, 2019 KPDK KPDK 09:18 09:36 0.3 hrs 0.00 hrs 0.00 nm 0.70 gal 2.36 gal/hr 0.00 gal/nm 0 msl 0 kts
Sat, Aug 24, 2019 KMGM KPDK 18:27 19:52 1.4 hrs 1.08 hrs 153.86 nm 14.89 gal 10.65 gal/hr 0.10 gal/nm 7309 msl 140 kts
Sat, Aug 24, 2019     18:23 18:24 0.02 hrs 0.00 hrs 0.00 nm 0.80 gal 42.35 gal/hr 0.00 gal/nm 0 msl 0 kts
Sat, Aug 24, 2019 KPDK KMGM 13:41 15:13 1.52 hrs 1.12 hrs 165.65 nm 15.90 gal 10.49 gal/hr 0.10 gal/nm 6183 msl 145 kts
Sat, Aug 24, 2019 KPDK KPDK 13:25 13:26 0.02 hrs 0.00 hrs 0.00 nm 0.32 gal 14.58 gal/hr 0.00 gal/nm 0 msl 0 kts
Thu, Aug 22, 2019 KPDK KPDK 19:03 20:44 1.67 hrs 1.31 hrs 171.14 nm 18.01 gal 10.79 gal/hr 0.11 gal/nm 5011 msl 128 kts
Thu, Aug 22, 2019     18:55 18:56 0.01 hrs 0.00 hrs 0.00 nm 18.45 gal 1509.55 gal/hr 0.00 gal/nm 0 msl 0 kts
Thu, Aug 22, 2019 KPDK KPDK 13:36 13:49 0.22 hrs 0.00 hrs 0.00 nm 0.00 gal 0.00 gal/hr 0.00 gal/nm 0 msl 0 kts
Thu, Aug 22, 2019 KPDK KPDK 11:33 11:35 0.03 hrs 0.00 hrs 0.00 nm 0.00 gal 0.00 gal/hr 0.00 gal/nm 0 msl 0 kts
Thu, Aug 22, 2019 KPDK KPDK 11:28 11:33 0.08 hrs 0.00 hrs 0.00 nm 0.00 gal 0.00 gal/hr 0.00 gal/nm 0 msl 0 kts
Thu, Aug 22, 2019 KPDK KPDK 11:20 11:28 0.11 hrs 0.00 hrs 0.00 nm 0.00 gal 0.00 gal/hr 0.00 gal/nm 0 msl 0 kts
Thu, Aug 22, 2019 KPDK KPDK 11:20 11:20 0.01 hrs 0.00 hrs 0.00 nm 0.00 gal 0.00 gal/hr 0.00 gal/nm 0 msl 0 kts
Thu, Aug 22, 2019 KPDK KPDK 11:18 11:19 0.02 hrs 0.00 hrs 0.00 nm 0.00 gal 0.00 gal/hr 0.00 gal/nm 0 msl 0 kts
Thu, Aug 22, 2019 KPDK KPDK 11:11 11:18 0.11 hrs 0.00 hrs 0.00 nm 0.00 gal 0.00 gal/hr 0.00 gal/nm 0 msl 0 kts
Thu, Aug 22, 2019     08:33 08:33 0 hrs 0.00 hrs 0.00 nm 0.00 gal 0.00 gal/hr 0.00 gal/nm 0 msl 0 kts
Thu, Aug 22, 2019     08:31 08:32 0.02 hrs 0.00 hrs 0.00 nm 0.00 gal 0.00 gal/hr 0.00 gal/nm 0 msl 0 kts
Thu, Aug 22, 2019     08:25 08:26 0 hrs 0.00 hrs 0.00 nm 0.00 gal 0.00 gal/hr 0.00 gal/nm 0 msl 0 kts
Wed, Aug 21, 2019 KHSV KPDK 14:52 16:04 1.18 hrs 0.95 hrs 139.28 nm 11.38 gal 9.63 gal/hr 0.08 gal/nm 5026 msl 145 kts
Mon, Aug 19, 2019 KPDK KHSV 07:28 08:39 1.17 hrs 0.93 hrs 138.27 nm 12.01 gal 10.25 gal/hr 0.09 gal/nm 8015 msl 146 kts
Mon, Aug 19, 2019     07:22 07:22 0 hrs 0.00 hrs 0.00 nm 0.02 gal 12.00 gal/hr 0.00 gal/nm 0 msl 0 kts
Mon, Aug 19, 2019     06:03 06:03 0.01 hrs 0.00 hrs 0.00 nm 0.03 gal 2.40 gal/hr 0.00 gal/nm 0 msl 0 kts
Sat, Aug 17, 2019     14:30 14:30 0 hrs 0.00 hrs 0.00 nm 0.15 gal 90.00 gal/hr 0.00 gal/nm 0 msl 0 kts
Sat, Aug 17, 2019 KCLT KPDK 12:31 14:27 1.9 hrs 1.41 hrs 196.79 nm 19.04 gal 10.05 gal/hr 0.10 gal/nm 8027 msl 137 kts
Sat, Aug 17, 2019 KCLT KCLT 12:27 12:28 0.02 hrs 0.00 hrs 0.00 nm 1.41 gal 63.45 gal/hr 0.00 gal/nm 0 msl 0 kts
Sat, Aug 17, 2019 KPDK KCLT 09:05 11:02 1.91 hrs 1.38 hrs 201.38 nm 18.59 gal 9.72 gal/hr 0.09 gal/nm 7029 msl 144 kts
Sat, Aug 17, 2019 KPDK KPDK 08:42 08:45 0.06 hrs 0.00 hrs 0.00 nm 0.18 gal 2.88 gal/hr 0.00 gal/nm 0 msl 0 kts
Fri, Aug 16, 2019     14:08 14:09 0.01 hrs 0.00 hrs 0.00 nm 0.07 gal 5.60 gal/hr 0.00 gal/nm 0 msl 0 kts
Fri, Aug 16, 2019     13:18 13:18 0.01 hrs 0.00 hrs 0.00 nm 0.18 gal 15.07 gal/hr 0.00 gal/nm 0 msl 0 kts
Thu, Aug 15, 2019     13:26 13:27 0.03 hrs 0.00 hrs 0.00 nm 0.01 gal 0.37 gal/hr 0.00 gal/nm 0 msl 0 kts
Thu, Aug 15, 2019     13:25 13:25 0.01 hrs 0.00 hrs 0.00 nm 0.02 gal 1.57 gal/hr 0.00 gal/nm 0 msl 0 kts
Thu, Aug 15, 2019     13:23 13:24 0.02 hrs 0.00 hrs 0.00 nm 0.00 gal 0.01 gal/hr 0.00 gal/nm 0 msl 0 kts
Thu, Aug 15, 2019     13:18 13:23 0.07 hrs 0.00 hrs 0.00 nm 0.42 gal 5.79 gal/hr 0.00 gal/nm 0 msl 0 kts
Tue, Aug 13, 2019     16:21 16:27 0.08 hrs 0.00 hrs 0.00 nm 0.34 gal 4.04 gal/hr 0.00 gal/nm 0 msl 0 kts
Tue, Aug 13, 2019     16:18 16:21 0.05 hrs 0.00 hrs 0.00 nm 0.22 gal 4.55 gal/hr 0.00 gal/nm 0 msl 0 kts
Tue, Aug 13, 2019     16:09 16:15 0.09 hrs 0.00 hrs 0.00 nm 0.05 gal 0.55 gal/hr 0.00 gal/nm 0 msl 0 kts
Tue, Aug 13, 2019     16:06 16:08 0.04 hrs 0.00 hrs 0.00 nm 0.02 gal 0.56 gal/hr 0.00 gal/nm 0 msl 0 kts
Tue, Aug 13, 2019     16:05 16:06 0.01 hrs 0.00 hrs 0.00 nm 0.02 gal 1.53 gal/hr 0.00 gal/nm 0 msl 0 kts
Tue, Aug 13, 2019     15:44 15:56 0.2 hrs 0.00 hrs 0.00 nm 0.14 gal 0.70 gal/hr 0.00 gal/nm 0 msl 0 kts
Tue, Aug 13, 2019 KPDK KPDK 14:51 14:58 0.12 hrs 0.00 hrs 0.00 nm 0.10 gal 0.86 gal/hr 0.00 gal/nm 0 msl 0 kts
Tue, Aug 13, 2019 KPDK KPDK 14:50 14:51 0.01 hrs 0.00 hrs 0.00 nm 0.01 gal 1.09 gal/hr 0.00 gal/nm 0 msl 0 kts
Tue, Aug 13, 2019 KPDK KPDK 14:49 14:50 0.02 hrs 0.00 hrs 0.00 nm 0.07 gal 4.42 gal/hr 0.00 gal/nm 0 msl 0 kts
Tue, Aug 13, 2019 KPDK KPDK 14:34 14:48 0.23 hrs 0.00 hrs 0.00 nm 0.10 gal 0.44 gal/hr 0.00 gal/nm 0 msl 0 kts
Tue, Aug 13, 2019 KPDK KPDK 14:11 14:13 0.04 hrs 0.00 hrs 0.00 nm 0.06 gal 1.70 gal/hr 0.00 gal/nm 0 msl 0 kts
Tue, Aug 13, 2019 KPDK KPDK 14:06 14:10 0.07 hrs 0.00 hrs 0.00 nm 0.06 gal 0.83 gal/hr 0.00 gal/nm 0 msl 0 kts
Tue, Aug 13, 2019 KPDK KPDK 14:04 14:04 0.01 hrs 0.00 hrs 0.00 nm 0.03 gal 5.14 gal/hr 0.00 gal/nm 0 msl 0 kts
Tue, Aug 13, 2019 KPDK KPDK 14:03 14:03 0.01 hrs 0.00 hrs 0.00 nm 11.14 gal 1909.71 gal/hr 0.00 gal/nm 0 msl 0 kts
Tue, Aug 13, 2019 KPDK KPDK 14:02 14:03 0.01 hrs 0.00 hrs 0.00 nm 0.05 gal 9.00 gal/hr 0.00 gal/nm 0 msl 0 kts
Tue, Aug 13, 2019 KPDK KPDK 14:02 14:02 0 hrs 0.00 hrs 0.00 nm 0.03 gal 12.00 gal/hr 0.00 gal/nm 0 msl 0 kts
Tue, Aug 13, 2019 KPDK KPDK 13:59 14:02 0.03 hrs 0.00 hrs 0.00 nm 0.09 gal 2.72 gal/hr 0.00 gal/nm 0 msl 0 kts
Tue, Aug 13, 2019 KPDK KPDK 13:29 13:31 0.04 hrs 0.00 hrs 0.00 nm 0.09 gal 2.25 gal/hr 0.00 gal/nm 0 msl 0 kts
Tue, Aug 13, 2019     13:10 13:10 0 hrs 0.00 hrs 0.00 nm 0.01 gal 4.00 gal/hr 0.00 gal/nm 0 msl 0 kts
Tue, Aug 13, 2019 KPDK KPDK 09:25 09:35 0.17 hrs 0.00 hrs 0.00 nm 0.51 gal 3.02 gal/hr 0.00 gal/nm 0 msl 0 kts
Tue, Aug 13, 2019     07:47 07:52 0.08 hrs 0.00 hrs 0.00 nm 0.27 gal 3.45 gal/hr 0.00 gal/nm 0 msl 0 kts
Tue, Aug 13, 2019 KPDK KPDK 07:28 07:37 0.14 hrs 0.00 hrs 0.00 nm 0.06 gal 0.41 gal/hr 0.00 gal/nm 0 msl 0 kts
Tue, Aug 13, 2019     06:30 06:31 0.01 hrs 0.00 hrs 0.00 nm 0.15 gal 12.00 gal/hr 0.00 gal/nm 0 msl 0 kts
Fri, Aug 9, 2019     09:02 09:03 0.01 hrs 0.00 hrs 0.00 nm 0.47 gal 40.29 gal/hr 0.00 gal/nm 0 msl 0 kts
Fri, Aug 9, 2019     08:58 08:59 0.02 hrs 0.00 hrs 0.00 nm 0.21 gal 11.45 gal/hr 0.00 gal/nm 0 msl 0 kts
Fri, Aug 9, 2019     08:57 08:58 0.01 hrs 0.00 hrs 0.00 nm 8.26 gal 1565.05 gal/hr 0.00 gal/nm 0 msl 0 kts
Thu, Aug 8, 2019     14:40 14:42 0.04 hrs 0.00 hrs 0.00 nm 0.07 gal 1.81 gal/hr 0.00 gal/nm 0 msl 0 kts
Thu, Aug 8, 2019     14:30 14:32 0.03 hrs 0.00 hrs 0.00 nm 0.12 gal 4.24 gal/hr 0.00 gal/nm 0 msl 0 kts
Thu, Aug 8, 2019     14:26 14:28 0.03 hrs 0.00 hrs 0.00 nm 0.21 gal 6.63 gal/hr 0.00 gal/nm 0 msl 0 kts
Wed, Aug 7, 2019     14:57 14:58 0.01 hrs 0.00 hrs 0.00 nm 0.17 gal 20.40 gal/hr 0.00 gal/nm 0 msl 0 kts
Wed, Aug 7, 2019     14:55 14:56 0.02 hrs 0.00 hrs 0.00 nm 0.04 gal 2.48 gal/hr 0.00 gal/nm 0 msl 0 kts
Wed, Aug 7, 2019     13:43 13:45 0.03 hrs 0.00 hrs 0.00 nm 0.22 gal 8.70 gal/hr 0.00 gal/nm 0 msl 0 kts
Wed, Aug 7, 2019     13:42 13:42 0.01 hrs 0.00 hrs 0.00 nm 0.20 gal 16.74 gal/hr 0.00 gal/nm 0 msl 0 kts
Wed, Aug 7, 2019     13:38 13:39 0.02 hrs 0.00 hrs 0.00 nm 0.16 gal 8.60 gal/hr 0.00 gal/nm 0 msl 0 kts
Wed, Aug 7, 2019 KPDK KPDK 13:06 13:10 0.07 hrs 0.00 hrs 0.00 nm 0.95 gal 14.62 gal/hr 0.00 gal/nm 0 msl 0 kts
Wed, Aug 7, 2019     10:43 10:44 0.02 hrs 0.00 hrs 0.00 nm 0.12 gal 8.00 gal/hr 0.00 gal/nm 0 msl 0 kts
Wed, Aug 7, 2019     08:47 08:47 0.01 hrs 0.00 hrs 0.00 nm 9.47 gal 1704.60 gal/hr 0.00 gal/nm 0 msl 0 kts
Wed, Aug 7, 2019 KPDK KPDK 08:14 08:35 0.34 hrs 0.00 hrs 0.00 nm 1.44 gal 4.20 gal/hr 0.00 gal/nm 0 msl 0 kts
Tue, Aug 6, 2019 KPDK KPDK 19:26 19:28 0.04 hrs 0.00 hrs 0.00 nm 0.52 gal 14.86 gal/hr 0.00 gal/nm 0 msl 0 kts
Tue, Aug 6, 2019     18:33 18:34 0.01 hrs 0.00 hrs 0.00 nm 0.03 gal 2.57 gal/hr 0.00 gal/nm 0 msl 0 kts
Tue, Aug 6, 2019     18:33 18:33 0.01 hrs 0.00 hrs 0.00 nm 0.06 gal 12.00 gal/hr 0.00 gal/nm 0 msl 0 kts
Tue, Aug 6, 2019 KLGC KPDK 17:38 18:32 0.87 hrs 0.66 hrs 89.37 nm 9.80 gal 11.24 gal/hr 0.11 gal/nm 5630 msl 133 kts
Tue, Aug 6, 2019     09:37 09:37 0 hrs 0.00 hrs 0.00 nm 0.01 gal 6.00 gal/hr 0.00 gal/nm 0 msl 0 kts
Tue, Aug 6, 2019 7A5 KLGC 09:17 09:35 0.31 hrs 0.20 hrs 24.59 nm 2.83 gal 9.17 gal/hr 0.12 gal/nm 3271 msl 121 kts
Tue, Aug 6, 2019 KPDK 7A5 07:02 08:29 1.43 hrs 1.02 hrs 135.12 nm 13.88 gal 9.70 gal/hr 0.10 gal/nm 4814 msl 131 kts
Tue, Aug 6, 2019 KPDK KPDK 06:51 06:54 0.05 hrs 0.00 hrs 0.00 nm 0.98 gal 21.51 gal/hr 0.00 gal/nm 0 msl 0 kts
Mon, Aug 5, 2019 KPDK KPDK 10:54 11:00 0.09 hrs 0.00 hrs 0.00 nm 0.37 gal 3.98 gal/hr 0.00 gal/nm 0 msl 0 kts
Mon, Aug 5, 2019     10:14 10:14 0.01 hrs 0.00 hrs 0.00 nm 0.81 gal 94.06 gal/hr 0.00 gal/nm 0 msl 0 kts
Mon, Aug 5, 2019 KPDK KPDK 10:03 10:11 0.13 hrs 0.00 hrs 0.00 nm 4.89 gal 36.83 gal/hr 0.00 gal/nm 0 msl 0 kts
Mon, Aug 5, 2019 KPDK KPDK 09:36 09:41 0.07 hrs 0.00 hrs 0.00 nm 0.00 gal 0.00 gal/hr 0.00 gal/nm 0 msl 0 kts
Sun, Aug 4, 2019 KCHA KPDK 16:44 17:34 0.82 hrs 0.63 hrs 88.29 nm 8.76 gal 10.70 gal/hr 0.10 gal/nm 5515 msl 138 kts
Sun, Aug 4, 2019 KPDK KCHA 14:27 15:17 0.81 hrs 0.64 hrs 86.66 nm 8.94 gal 11.06 gal/hr 0.10 gal/nm 4547 msl 132 kts
Fri, Aug 2, 2019 KTYS KPDK 11:43 12:57 1.22 hrs 0.91 hrs 132.85 nm 13.38 gal 11.01 gal/hr 0.10 gal/nm 8012 msl 144 kts
Fri, Aug 2, 2019     11:38 11:38 0.01 hrs 0.00 hrs 0.00 nm 0.10 gal 10.91 gal/hr 0.00 gal/nm 0 msl 0 kts
Thu, Aug 1, 2019 KPDK KTYS 11:05 12:19 1.22 hrs 0.89 hrs 134.23 nm 14.04 gal 11.52 gal/hr 0.10 gal/nm 7521 msl 149 kts
Thu, Aug 1, 2019     11:03 11:03 0.01 hrs 0.00 hrs 0.00 nm 0.23 gal 23.66 gal/hr 0.00 gal/nm 0 msl 0 kts
Mon, Jul 29, 2019 KTYS KPDK 16:12 17:43 1.49 hrs 0.99 hrs 139.16 nm 14.63 gal 9.83 gal/hr 0.11 gal/nm 8031 msl 138 kts
Mon, Jul 29, 2019 KTYS KTYS 14:31 15:22 0.84 hrs 0.43 hrs 56.01 nm 7.49 gal 8.93 gal/hr 0.13 gal/nm 5700 msl 129 kts
Mon, Jul 29, 2019     14:29 14:30 0 hrs 0.00 hrs 0.00 nm 2.87 gal 1476.00 gal/hr 0.00 gal/nm 0 msl 0 kts
Mon, Jul 29, 2019 KTYS KTYS 13:54 14:13 0.32 hrs 0.00 hrs 0.00 nm 0.09 gal 0.29 gal/hr 0.00 gal/nm 0 msl 0 kts
Fri, Jul 26, 2019 KTYS KTYS 15:26 15:28 0.04 hrs 0.00 hrs 0.00 nm 0.05 gal 1.19 gal/hr 0.00 gal/nm 0 msl 0 kts
Fri, Jul 26, 2019     11:20 11:21 0.01 hrs 0.00 hrs 0.00 nm 0.40 gal 34.29 gal/hr 0.00 gal/nm 0 msl 0 kts
Fri, Jul 26, 2019     09:47 09:49 0.04 hrs 0.00 hrs 0.00 nm 0.43 gal 11.14 gal/hr 0.00 gal/nm 0 msl 0 kts
Wed, Jul 24, 2019     17:46 17:47 0 hrs 0.00 hrs 0.00 nm 0.01 gal 2.25 gal/hr 0.00 gal/nm 0 msl 0 kts
Wed, Jul 24, 2019 KTYQ KTYS 15:37 17:43 2.06 hrs 1.87 hrs 296.24 nm 26.51 gal 12.85 gal/hr 0.09 gal/nm 7017 msl 156 kts
Wed, Jul 24, 2019 KDLH KTYQ 10:42 15:17 3.52 hrs 3.22 hrs 516.40 nm 57.46 gal 16.31 gal/hr 0.11 gal/nm 7029 msl 158 kts
Wed, Jul 24, 2019 KDLH KDLH 10:33 10:37 0.05 hrs 0.00 hrs 0.00 nm 0.16 gal 3.06 gal/hr 0.00 gal/nm 0 msl 0 kts
Wed, Jul 24, 2019 KDLH KDLH 10:25 10:26 0.02 hrs 0.00 hrs 0.00 nm 0.15 gal 6.84 gal/hr 0.00 gal/nm 0 msl 0 kts
Tue, Jul 23, 2019     06:20 06:20 0 hrs 0.00 hrs 0.00 nm 0.02 gal 12.00 gal/hr 0.00 gal/nm 0 msl 0 kts
Mon, Jul 22, 2019 KDLH KDLH 14:33 14:35 0.04 hrs 0.00 hrs 0.00 nm 0.25 gal 5.96 gal/hr 0.00 gal/nm 0 msl 0 kts
Mon, Jul 22, 2019     14:28 14:29 0.02 hrs 0.00 hrs 0.00 nm 0.08 gal 4.36 gal/hr 0.00 gal/nm 0 msl 0 kts
Mon, Jul 22, 2019 KDLH KDLH 14:04 14:09 0.09 hrs 0.00 hrs 0.01 nm 0.11 gal 1.29 gal/hr 11.00 gal/nm 975 msl 281 kts
Mon, Jul 22, 2019 KDLH KDLH 08:16 08:19 0.06 hrs 0.00 hrs 0.00 nm 0.06 gal 0.97 gal/hr 0.00 gal/nm 0 msl 0 kts
Thu, Jul 18, 2019 KDLH KDLH 15:22 15:28 0.11 hrs 0.00 hrs 0.00 nm 0.35 gal 3.13 gal/hr 0.00 gal/nm 0 msl 0 kts
Thu, Jul 18, 2019     15:06 15:06 0.01 hrs 0.00 hrs 0.00 nm 0.13 gal 26.00 gal/hr 0.00 gal/nm 0 msl 0 kts
          514.11 hrs 349.56 hrs 45225.60 nm 5590.21 gal